<?xml version="1.0" encoding="UTF-8" standalone="no" ?>
<gpx xmlns="http://www.topografix.com/GPX/1/1" xmlns:xsi="http://www.w3.org/2001/XMLSchema-instance" xsi:schemaLocation="http://www.topografix.com/GPX/1/1 http://www.topografix.com/GPX/1/1/gpx.xsd" version="1.1" creator="VisuGPX - https://www.visugpx.com">
  <metadata>
    <name>Saix Randonnée  mardi 1 févr. 2022 à 13:39</name>
  </metadata>
  <trk>
    <name><![CDATA[Saix Randonnée  mardi 1 févr. 2022 à 13:39]]></name>
    <trkseg>
      <trkpt lat="43.58205" lon="2.14431">
        <ele>192.37507194028</ele>
        <time>2022-02-01T12:39:38Z</time>
      </trkpt>
      <trkpt lat="43.58205" lon="2.14431">
        <ele>192.37507194028</ele>
        <time>2022-02-01T12:39:46Z</time>
      </trkpt>
      <trkpt lat="43.58232" lon="2.14372">
        <ele>164.4814448964</ele>
        <time>2022-02-01T12:39:50Z</time>
      </trkpt>
      <trkpt lat="43.58241" lon="2.1437">
        <ele>169.09946003149</ele>
        <time>2022-02-01T12:42:19Z</time>
      </trkpt>
      <trkpt lat="43.58245" lon="2.1436">
        <ele>166.90993248661</ele>
        <time>2022-02-01T12:42:26Z</time>
      </trkpt>
      <trkpt lat="43.58251" lon="2.14352">
        <ele>166.40467585832</ele>
        <time>2022-02-01T12:42:33Z</time>
      </trkpt>
      <trkpt lat="43.58258" lon="2.14346">
        <ele>166.40279919213</ele>
        <time>2022-02-01T12:42:41Z</time>
      </trkpt>
      <trkpt lat="43.58264" lon="2.1434">
        <ele>166.89074982724</ele>
        <time>2022-02-01T12:42:45Z</time>
      </trkpt>
      <trkpt lat="43.58271" lon="2.14334">
        <ele>166.40406298524</ele>
        <time>2022-02-01T12:42:52Z</time>
      </trkpt>
      <trkpt lat="43.58273" lon="2.14322">
        <ele>164.63982098697</ele>
        <time>2022-02-01T12:43:02Z</time>
      </trkpt>
      <trkpt lat="43.58276" lon="2.14312">
        <ele>163.79799948913</ele>
        <time>2022-02-01T12:43:15Z</time>
      </trkpt>
      <trkpt lat="43.58279" lon="2.14302">
        <ele>163.8275785353</ele>
        <time>2022-02-01T12:43:24Z</time>
      </trkpt>
      <trkpt lat="43.58282" lon="2.1429">
        <ele>163.53087322194</ele>
        <time>2022-02-01T12:43:31Z</time>
      </trkpt>
      <trkpt lat="43.58286" lon="2.14281">
        <ele>162.93828000213</ele>
        <time>2022-02-01T12:43:40Z</time>
      </trkpt>
      <trkpt lat="43.58291" lon="2.14271">
        <ele>161.99318759208</ele>
        <time>2022-02-01T12:43:49Z</time>
      </trkpt>
      <trkpt lat="43.58295" lon="2.1426">
        <ele>161.47485456238</ele>
        <time>2022-02-01T12:43:56Z</time>
      </trkpt>
      <trkpt lat="43.583" lon="2.14252">
        <ele>159.49042126934</ele>
        <time>2022-02-01T12:44:02Z</time>
      </trkpt>
      <trkpt lat="43.58306" lon="2.14244">
        <ele>158.72159894176</ele>
        <time>2022-02-01T12:44:08Z</time>
      </trkpt>
      <trkpt lat="43.58311" lon="2.14235">
        <ele>159.02419236824</ele>
        <time>2022-02-01T12:44:14Z</time>
      </trkpt>
      <trkpt lat="43.58317" lon="2.14227">
        <ele>159.37927204318</ele>
        <time>2022-02-01T12:44:20Z</time>
      </trkpt>
      <trkpt lat="43.58324" lon="2.14219">
        <ele>159.51630763209</ele>
        <time>2022-02-01T12:44:29Z</time>
      </trkpt>
      <trkpt lat="43.58329" lon="2.1421">
        <ele>159.53603151959</ele>
        <time>2022-02-01T12:44:37Z</time>
      </trkpt>
      <trkpt lat="43.58333" lon="2.14198">
        <ele>159.99735616918</ele>
        <time>2022-02-01T12:44:44Z</time>
      </trkpt>
      <trkpt lat="43.58338" lon="2.1419">
        <ele>160.51003930464</ele>
        <time>2022-02-01T12:44:50Z</time>
      </trkpt>
      <trkpt lat="43.58344" lon="2.14182">
        <ele>161.54529164917</ele>
        <time>2022-02-01T12:44:57Z</time>
      </trkpt>
      <trkpt lat="43.58349" lon="2.14173">
        <ele>164.10586114568</ele>
        <time>2022-02-01T12:45:03Z</time>
      </trkpt>
      <trkpt lat="43.58355" lon="2.14166">
        <ele>166.39927179335</ele>
        <time>2022-02-01T12:45:09Z</time>
      </trkpt>
      <trkpt lat="43.5836" lon="2.14156">
        <ele>166.7579073487</ele>
        <time>2022-02-01T12:45:16Z</time>
      </trkpt>
      <trkpt lat="43.58367" lon="2.14148">
        <ele>168.57470638736</ele>
        <time>2022-02-01T12:45:22Z</time>
      </trkpt>
      <trkpt lat="43.58371" lon="2.14137">
        <ele>169.65580283401</ele>
        <time>2022-02-01T12:45:29Z</time>
      </trkpt>
      <trkpt lat="43.58377" lon="2.14128">
        <ele>169.52903319276</ele>
        <time>2022-02-01T12:45:38Z</time>
      </trkpt>
      <trkpt lat="43.58381" lon="2.14119">
        <ele>167.08483080771</ele>
        <time>2022-02-01T12:45:47Z</time>
      </trkpt>
      <trkpt lat="43.58379" lon="2.14107">
        <ele>167.34704175265</ele>
        <time>2022-02-01T12:45:55Z</time>
      </trkpt>
      <trkpt lat="43.58374" lon="2.14094">
        <ele>170.92600290507</ele>
        <time>2022-02-01T12:46:00Z</time>
      </trkpt>
      <trkpt lat="43.58371" lon="2.14084">
        <ele>172.45763482681</ele>
        <time>2022-02-01T12:46:05Z</time>
      </trkpt>
      <trkpt lat="43.58372" lon="2.14071">
        <ele>171.81104313654</ele>
        <time>2022-02-01T12:46:14Z</time>
      </trkpt>
      <trkpt lat="43.58372" lon="2.1406">
        <ele>170.43167236071</ele>
        <time>2022-02-01T12:46:22Z</time>
      </trkpt>
      <trkpt lat="43.58374" lon="2.14049">
        <ele>170.15126464001</ele>
        <time>2022-02-01T12:46:29Z</time>
      </trkpt>
      <trkpt lat="43.58378" lon="2.14039">
        <ele>169.31569174851</ele>
        <time>2022-02-01T12:46:35Z</time>
      </trkpt>
      <trkpt lat="43.58385" lon="2.14031">
        <ele>166.26957760061</ele>
        <time>2022-02-01T12:46:41Z</time>
      </trkpt>
      <trkpt lat="43.58392" lon="2.14026">
        <ele>163.51279483917</ele>
        <time>2022-02-01T12:46:47Z</time>
      </trkpt>
      <trkpt lat="43.58399" lon="2.1402">
        <ele>162.8103692495</ele>
        <time>2022-02-01T12:46:52Z</time>
      </trkpt>
      <trkpt lat="43.58405" lon="2.14015">
        <ele>161.98491453707</ele>
        <time>2022-02-01T12:46:58Z</time>
      </trkpt>
      <trkpt lat="43.58411" lon="2.14005">
        <ele>161.24265647859</ele>
        <time>2022-02-01T12:47:06Z</time>
      </trkpt>
      <trkpt lat="43.58414" lon="2.13995">
        <ele>159.06446395144</ele>
        <time>2022-02-01T12:47:14Z</time>
      </trkpt>
      <trkpt lat="43.58418" lon="2.13986">
        <ele>157.39594218743</ele>
        <time>2022-02-01T12:47:20Z</time>
      </trkpt>
      <trkpt lat="43.58423" lon="2.13976">
        <ele>157.81959521033</ele>
        <time>2022-02-01T12:47:27Z</time>
      </trkpt>
      <trkpt lat="43.58425" lon="2.13965">
        <ele>158.40576242285</ele>
        <time>2022-02-01T12:47:34Z</time>
      </trkpt>
      <trkpt lat="43.58424" lon="2.13954">
        <ele>158.56096739823</ele>
        <time>2022-02-01T12:47:40Z</time>
      </trkpt>
      <trkpt lat="43.58421" lon="2.13945">
        <ele>159.60497585219</ele>
        <time>2022-02-01T12:47:45Z</time>
      </trkpt>
      <trkpt lat="43.58414" lon="2.13938">
        <ele>158.64481187984</ele>
        <time>2022-02-01T12:47:52Z</time>
      </trkpt>
      <trkpt lat="43.58407" lon="2.13931">
        <ele>159.27877771478</ele>
        <time>2022-02-01T12:48:00Z</time>
      </trkpt>
      <trkpt lat="43.58399" lon="2.13927">
        <ele>159.76105614923</ele>
        <time>2022-02-01T12:48:08Z</time>
      </trkpt>
      <trkpt lat="43.58391" lon="2.13924">
        <ele>159.39854215511</ele>
        <time>2022-02-01T12:48:15Z</time>
      </trkpt>
      <trkpt lat="43.58383" lon="2.13921">
        <ele>160.55634294575</ele>
        <time>2022-02-01T12:48:21Z</time>
      </trkpt>
      <trkpt lat="43.58375" lon="2.13921">
        <ele>160.33401171897</ele>
        <time>2022-02-01T12:48:29Z</time>
      </trkpt>
      <trkpt lat="43.58367" lon="2.13926">
        <ele>160.28114468474</ele>
        <time>2022-02-01T12:48:36Z</time>
      </trkpt>
      <trkpt lat="43.5836" lon="2.13933">
        <ele>159.6548875782</ele>
        <time>2022-02-01T12:48:42Z</time>
      </trkpt>
      <trkpt lat="43.58352" lon="2.1393">
        <ele>158.7619176161</ele>
        <time>2022-02-01T12:48:51Z</time>
      </trkpt>
      <trkpt lat="43.58345" lon="2.13924">
        <ele>157.99030229234</ele>
        <time>2022-02-01T12:48:59Z</time>
      </trkpt>
      <trkpt lat="43.58339" lon="2.13915">
        <ele>157.87365276241</ele>
        <time>2022-02-01T12:49:06Z</time>
      </trkpt>
      <trkpt lat="43.58333" lon="2.13907">
        <ele>159.44147102325</ele>
        <time>2022-02-01T12:49:11Z</time>
      </trkpt>
      <trkpt lat="43.58329" lon="2.13896">
        <ele>160.22947952446</ele>
        <time>2022-02-01T12:49:18Z</time>
      </trkpt>
      <trkpt lat="43.58326" lon="2.13886">
        <ele>160.63125814391</ele>
        <time>2022-02-01T12:49:24Z</time>
      </trkpt>
      <trkpt lat="43.58323" lon="2.13875">
        <ele>160.57794665019</ele>
        <time>2022-02-01T12:49:31Z</time>
      </trkpt>
      <trkpt lat="43.58318" lon="2.13866">
        <ele>160.22353047556</ele>
        <time>2022-02-01T12:49:36Z</time>
      </trkpt>
      <trkpt lat="43.58315" lon="2.13855">
        <ele>159.37886068335</ele>
        <time>2022-02-01T12:49:43Z</time>
      </trkpt>
      <trkpt lat="43.58312" lon="2.13844">
        <ele>160.93055805808</ele>
        <time>2022-02-01T12:49:51Z</time>
      </trkpt>
      <trkpt lat="43.58311" lon="2.13832">
        <ele>161.5414919201</ele>
        <time>2022-02-01T12:49:59Z</time>
      </trkpt>
      <trkpt lat="43.58312" lon="2.13821">
        <ele>160.89279780243</ele>
        <time>2022-02-01T12:50:06Z</time>
      </trkpt>
      <trkpt lat="43.58315" lon="2.13809">
        <ele>159.61737795294</ele>
        <time>2022-02-01T12:50:13Z</time>
      </trkpt>
      <trkpt lat="43.58315" lon="2.13797">
        <ele>158.17801927449</ele>
        <time>2022-02-01T12:50:20Z</time>
      </trkpt>
      <trkpt lat="43.5831" lon="2.13788">
        <ele>158.6761730319</ele>
        <time>2022-02-01T12:50:27Z</time>
      </trkpt>
      <trkpt lat="43.58306" lon="2.13777">
        <ele>159.67173321905</ele>
        <time>2022-02-01T12:50:33Z</time>
      </trkpt>
      <trkpt lat="43.583" lon="2.13769">
        <ele>161.68430028734</ele>
        <time>2022-02-01T12:50:41Z</time>
      </trkpt>
      <trkpt lat="43.58292" lon="2.13766">
        <ele>160.42904380544</ele>
        <time>2022-02-01T12:50:48Z</time>
      </trkpt>
      <trkpt lat="43.58284" lon="2.13764">
        <ele>160.12115126624</ele>
        <time>2022-02-01T12:50:55Z</time>
      </trkpt>
      <trkpt lat="43.58275" lon="2.13764">
        <ele>159.88157628448</ele>
        <time>2022-02-01T12:51:04Z</time>
      </trkpt>
      <trkpt lat="43.58267" lon="2.1376">
        <ele>159.64849246357</ele>
        <time>2022-02-01T12:51:12Z</time>
      </trkpt>
      <trkpt lat="43.58259" lon="2.13756">
        <ele>161.15596822998</ele>
        <time>2022-02-01T12:51:19Z</time>
      </trkpt>
      <trkpt lat="43.5825" lon="2.13755">
        <ele>161.74867627511</ele>
        <time>2022-02-01T12:51:25Z</time>
      </trkpt>
      <trkpt lat="43.58243" lon="2.1375">
        <ele>162.35455162332</ele>
        <time>2022-02-01T12:51:36Z</time>
      </trkpt>
      <trkpt lat="43.58235" lon="2.13748">
        <ele>162.5542013728</ele>
        <time>2022-02-01T12:51:42Z</time>
      </trkpt>
      <trkpt lat="43.58227" lon="2.13746">
        <ele>163.25270166911</ele>
        <time>2022-02-01T12:51:48Z</time>
      </trkpt>
      <trkpt lat="43.58219" lon="2.13744">
        <ele>163.97128071338</ele>
        <time>2022-02-01T12:51:56Z</time>
      </trkpt>
      <trkpt lat="43.58212" lon="2.1374">
        <ele>164.44141833724</ele>
        <time>2022-02-01T12:52:02Z</time>
      </trkpt>
      <trkpt lat="43.58201" lon="2.13738">
        <ele>165.05861103292</ele>
        <time>2022-02-01T12:52:07Z</time>
      </trkpt>
      <trkpt lat="43.58192" lon="2.13734">
        <ele>165.66824918373</ele>
        <time>2022-02-01T12:52:12Z</time>
      </trkpt>
      <trkpt lat="43.58184" lon="2.13734">
        <ele>167.26794839392</ele>
        <time>2022-02-01T12:52:18Z</time>
      </trkpt>
      <trkpt lat="43.58176" lon="2.1373">
        <ele>168.25788878199</ele>
        <time>2022-02-01T12:52:23Z</time>
      </trkpt>
      <trkpt lat="43.58169" lon="2.13725">
        <ele>170.88370439641</ele>
        <time>2022-02-01T12:52:29Z</time>
      </trkpt>
      <trkpt lat="43.58162" lon="2.13719">
        <ele>171.32076782247</ele>
        <time>2022-02-01T12:52:35Z</time>
      </trkpt>
      <trkpt lat="43.58154" lon="2.13717">
        <ele>168.97298334488</ele>
        <time>2022-02-01T12:52:44Z</time>
      </trkpt>
      <trkpt lat="43.58146" lon="2.13711">
        <ele>167.24536963924</ele>
        <time>2022-02-01T12:52:54Z</time>
      </trkpt>
      <trkpt lat="43.58138" lon="2.13709">
        <ele>165.38339467447</ele>
        <time>2022-02-01T12:53:02Z</time>
      </trkpt>
      <trkpt lat="43.58129" lon="2.13708">
        <ele>164.69465815709</ele>
        <time>2022-02-01T12:53:11Z</time>
      </trkpt>
      <trkpt lat="43.5812" lon="2.13708">
        <ele>163.95370515972</ele>
        <time>2022-02-01T12:53:25Z</time>
      </trkpt>
      <trkpt lat="43.58114" lon="2.13702">
        <ele>164.13973903281</ele>
        <time>2022-02-01T12:53:29Z</time>
      </trkpt>
      <trkpt lat="43.58104" lon="2.13698">
        <ele>164.82861382072</ele>
        <time>2022-02-01T12:53:34Z</time>
      </trkpt>
      <trkpt lat="43.58095" lon="2.13693">
        <ele>166.56089839959</ele>
        <time>2022-02-01T12:53:38Z</time>
      </trkpt>
      <trkpt lat="43.58086" lon="2.13691">
        <ele>167.43230878553</ele>
        <time>2022-02-01T12:53:43Z</time>
      </trkpt>
      <trkpt lat="43.58078" lon="2.13686">
        <ele>167.40785979445</ele>
        <time>2022-02-01T12:53:50Z</time>
      </trkpt>
      <trkpt lat="43.58071" lon="2.13682">
        <ele>168.52549603464</ele>
        <time>2022-02-01T12:53:56Z</time>
      </trkpt>
      <trkpt lat="43.58062" lon="2.13679">
        <ele>169.4593579112</ele>
        <time>2022-02-01T12:54:02Z</time>
      </trkpt>
      <trkpt lat="43.58054" lon="2.13676">
        <ele>167.34665762968</ele>
        <time>2022-02-01T12:54:15Z</time>
      </trkpt>
      <trkpt lat="43.58046" lon="2.13672">
        <ele>166.05754251498</ele>
        <time>2022-02-01T12:54:21Z</time>
      </trkpt>
      <trkpt lat="43.58039" lon="2.13668">
        <ele>165.54507446275</ele>
        <time>2022-02-01T12:54:25Z</time>
      </trkpt>
      <trkpt lat="43.5803" lon="2.13667">
        <ele>164.68651817739</ele>
        <time>2022-02-01T12:54:32Z</time>
      </trkpt>
      <trkpt lat="43.58022" lon="2.13667">
        <ele>162.50361475366</ele>
        <time>2022-02-01T12:54:42Z</time>
      </trkpt>
      <trkpt lat="43.58014" lon="2.13662">
        <ele>162.71438221418</ele>
        <time>2022-02-01T12:54:48Z</time>
      </trkpt>
      <trkpt lat="43.58006" lon="2.13663">
        <ele>159.95392065461</ele>
        <time>2022-02-01T12:54:56Z</time>
      </trkpt>
      <trkpt lat="43.57998" lon="2.13659">
        <ele>158.1921460134</ele>
        <time>2022-02-01T12:55:03Z</time>
      </trkpt>
      <trkpt lat="43.57989" lon="2.13657">
        <ele>156.64806692435</ele>
        <time>2022-02-01T12:55:11Z</time>
      </trkpt>
      <trkpt lat="43.57981" lon="2.13654">
        <ele>156.4093831119</ele>
        <time>2022-02-01T12:55:18Z</time>
      </trkpt>
      <trkpt lat="43.57974" lon="2.13651">
        <ele>157.26797925596</ele>
        <time>2022-02-01T12:55:24Z</time>
      </trkpt>
      <trkpt lat="43.57966" lon="2.13646">
        <ele>158.73036505848</ele>
        <time>2022-02-01T12:55:31Z</time>
      </trkpt>
      <trkpt lat="43.57958" lon="2.13644">
        <ele>157.29681934575</ele>
        <time>2022-02-01T12:55:38Z</time>
      </trkpt>
      <trkpt lat="43.5795" lon="2.13641">
        <ele>158.87114336386</ele>
        <time>2022-02-01T12:55:45Z</time>
      </trkpt>
      <trkpt lat="43.57942" lon="2.13641">
        <ele>159.06304798975</ele>
        <time>2022-02-01T12:55:52Z</time>
      </trkpt>
      <trkpt lat="43.57933" lon="2.13636">
        <ele>159.59837738775</ele>
        <time>2022-02-01T12:55:58Z</time>
      </trkpt>
      <trkpt lat="43.57925" lon="2.13632">
        <ele>160.69214394918</ele>
        <time>2022-02-01T12:56:09Z</time>
      </trkpt>
      <trkpt lat="43.57917" lon="2.13629">
        <ele>161.71342224682</ele>
        <time>2022-02-01T12:56:14Z</time>
      </trkpt>
      <trkpt lat="43.5791" lon="2.13627">
        <ele>162.46343978363</ele>
        <time>2022-02-01T12:56:20Z</time>
      </trkpt>
      <trkpt lat="43.57903" lon="2.13625">
        <ele>163.59498396552</ele>
        <time>2022-02-01T12:56:26Z</time>
      </trkpt>
      <trkpt lat="43.57894" lon="2.13622">
        <ele>163.87965083952</ele>
        <time>2022-02-01T12:56:31Z</time>
      </trkpt>
      <trkpt lat="43.57886" lon="2.13618">
        <ele>164.46517316577</ele>
        <time>2022-02-01T12:56:38Z</time>
      </trkpt>
      <trkpt lat="43.57878" lon="2.13616">
        <ele>164.48091390737</ele>
        <time>2022-02-01T12:56:47Z</time>
      </trkpt>
      <trkpt lat="43.5787" lon="2.13612">
        <ele>164.36679067403</ele>
        <time>2022-02-01T12:56:53Z</time>
      </trkpt>
      <trkpt lat="43.57863" lon="2.13607">
        <ele>165.29935913653</ele>
        <time>2022-02-01T12:56:59Z</time>
      </trkpt>
      <trkpt lat="43.57855" lon="2.13605">
        <ele>166.65747535841</ele>
        <time>2022-02-01T12:57:05Z</time>
      </trkpt>
      <trkpt lat="43.57847" lon="2.13601">
        <ele>167.50994412715</ele>
        <time>2022-02-01T12:57:11Z</time>
      </trkpt>
      <trkpt lat="43.57841" lon="2.13598">
        <ele>168.62121468319</ele>
        <time>2022-02-01T12:57:17Z</time>
      </trkpt>
      <trkpt lat="43.57832" lon="2.13596">
        <ele>169.24491777245</ele>
        <time>2022-02-01T12:57:23Z</time>
      </trkpt>
      <trkpt lat="43.57825" lon="2.13592">
        <ele>168.29723883017</ele>
        <time>2022-02-01T12:57:31Z</time>
      </trkpt>
      <trkpt lat="43.57816" lon="2.13589">
        <ele>167.35353797231</ele>
        <time>2022-02-01T12:57:39Z</time>
      </trkpt>
      <trkpt lat="43.57809" lon="2.13587">
        <ele>167.26734275144</ele>
        <time>2022-02-01T12:57:51Z</time>
      </trkpt>
      <trkpt lat="43.57801" lon="2.13582">
        <ele>167.89019474484</ele>
        <time>2022-02-01T12:57:56Z</time>
      </trkpt>
      <trkpt lat="43.57792" lon="2.1358">
        <ele>167.29242694935</ele>
        <time>2022-02-01T12:58:03Z</time>
      </trkpt>
      <trkpt lat="43.57784" lon="2.13578">
        <ele>166.3614641928</ele>
        <time>2022-02-01T12:58:09Z</time>
      </trkpt>
      <trkpt lat="43.57776" lon="2.13574">
        <ele>165.40501307028</ele>
        <time>2022-02-01T12:58:16Z</time>
      </trkpt>
      <trkpt lat="43.5777" lon="2.13567">
        <ele>164.2369252188</ele>
        <time>2022-02-01T12:58:22Z</time>
      </trkpt>
      <trkpt lat="43.57768" lon="2.13556">
        <ele>161.57787405066</ele>
        <time>2022-02-01T12:58:28Z</time>
      </trkpt>
      <trkpt lat="43.57769" lon="2.13545">
        <ele>161.14954491649</ele>
        <time>2022-02-01T12:58:34Z</time>
      </trkpt>
      <trkpt lat="43.5777" lon="2.13533">
        <ele>160.76769412358</ele>
        <time>2022-02-01T12:58:42Z</time>
      </trkpt>
      <trkpt lat="43.57771" lon="2.13522">
        <ele>161.15152045235</ele>
        <time>2022-02-01T12:58:51Z</time>
      </trkpt>
      <trkpt lat="43.57778" lon="2.13516">
        <ele>162.4058669366</ele>
        <time>2022-02-01T12:58:57Z</time>
      </trkpt>
      <trkpt lat="43.57786" lon="2.13512">
        <ele>162.99845152444</ele>
        <time>2022-02-01T12:59:04Z</time>
      </trkpt>
      <trkpt lat="43.57794" lon="2.13509">
        <ele>162.86721609143</ele>
        <time>2022-02-01T12:59:10Z</time>
      </trkpt>
      <trkpt lat="43.57802" lon="2.13506">
        <ele>163.39565081994</ele>
        <time>2022-02-01T12:59:16Z</time>
      </trkpt>
      <trkpt lat="43.57809" lon="2.13503">
        <ele>163.80795492773</ele>
        <time>2022-02-01T12:59:22Z</time>
      </trkpt>
      <trkpt lat="43.57817" lon="2.13504">
        <ele>163.61001163533</ele>
        <time>2022-02-01T12:59:28Z</time>
      </trkpt>
      <trkpt lat="43.57826" lon="2.13501">
        <ele>163.92753536892</ele>
        <time>2022-02-01T12:59:36Z</time>
      </trkpt>
      <trkpt lat="43.57833" lon="2.13495">
        <ele>165.83431155876</ele>
        <time>2022-02-01T12:59:43Z</time>
      </trkpt>
      <trkpt lat="43.5784" lon="2.13491">
        <ele>165.43797838012</ele>
        <time>2022-02-01T12:59:50Z</time>
      </trkpt>
      <trkpt lat="43.57849" lon="2.13488">
        <ele>165.05119435758</ele>
        <time>2022-02-01T12:59:58Z</time>
      </trkpt>
      <trkpt lat="43.57856" lon="2.13482">
        <ele>164.53714114946</ele>
        <time>2022-02-01T13:00:05Z</time>
      </trkpt>
      <trkpt lat="43.57864" lon="2.13479">
        <ele>164.65607492792</ele>
        <time>2022-02-01T13:00:11Z</time>
      </trkpt>
      <trkpt lat="43.57872" lon="2.13476">
        <ele>165.25252639442</ele>
        <time>2022-02-01T13:00:17Z</time>
      </trkpt>
      <trkpt lat="43.5788" lon="2.13471">
        <ele>166.46212007925</ele>
        <time>2022-02-01T13:00:24Z</time>
      </trkpt>
      <trkpt lat="43.57888" lon="2.13467">
        <ele>162.95634917757</ele>
        <time>2022-02-01T13:00:34Z</time>
      </trkpt>
      <trkpt lat="43.57896" lon="2.13462">
        <ele>162.88891948365</ele>
        <time>2022-02-01T13:00:41Z</time>
      </trkpt>
      <trkpt lat="43.57903" lon="2.13458">
        <ele>163.51123871295</ele>
        <time>2022-02-01T13:00:47Z</time>
      </trkpt>
      <trkpt lat="43.57911" lon="2.13452">
        <ele>162.97684168619</ele>
        <time>2022-02-01T13:00:54Z</time>
      </trkpt>
      <trkpt lat="43.57918" lon="2.13449">
        <ele>162.16183787906</ele>
        <time>2022-02-01T13:01:02Z</time>
      </trkpt>
      <trkpt lat="43.57925" lon="2.13442">
        <ele>161.94836954104</ele>
        <time>2022-02-01T13:01:12Z</time>
      </trkpt>
      <trkpt lat="43.57932" lon="2.13439">
        <ele>160.97715199521</ele>
        <time>2022-02-01T13:01:18Z</time>
      </trkpt>
      <trkpt lat="43.57938" lon="2.13432">
        <ele>161.3346805037</ele>
        <time>2022-02-01T13:01:25Z</time>
      </trkpt>
      <trkpt lat="43.57936" lon="2.13421">
        <ele>160.42881704647</ele>
        <time>2022-02-01T13:01:33Z</time>
      </trkpt>
      <trkpt lat="43.5793" lon="2.13414">
        <ele>159.45675724523</ele>
        <time>2022-02-01T13:01:41Z</time>
      </trkpt>
      <trkpt lat="43.57924" lon="2.13407">
        <ele>159.77995113228</ele>
        <time>2022-02-01T13:01:46Z</time>
      </trkpt>
      <trkpt lat="43.57917" lon="2.13398">
        <ele>161.73242335009</ele>
        <time>2022-02-01T13:01:52Z</time>
      </trkpt>
      <trkpt lat="43.57915" lon="2.13388">
        <ele>162.20403801142</ele>
        <time>2022-02-01T13:02:02Z</time>
      </trkpt>
      <trkpt lat="43.57912" lon="2.13377">
        <ele>162.04073281138</ele>
        <time>2022-02-01T13:02:08Z</time>
      </trkpt>
      <trkpt lat="43.57906" lon="2.13368">
        <ele>163.17694484158</ele>
        <time>2022-02-01T13:02:13Z</time>
      </trkpt>
      <trkpt lat="43.57907" lon="2.13355">
        <ele>158.6825188744</ele>
        <time>2022-02-01T13:02:29Z</time>
      </trkpt>
      <trkpt lat="43.57905" lon="2.13344">
        <ele>157.92721407248</ele>
        <time>2022-02-01T13:02:36Z</time>
      </trkpt>
      <trkpt lat="43.57903" lon="2.13333">
        <ele>156.71045136851</ele>
        <time>2022-02-01T13:02:43Z</time>
      </trkpt>
      <trkpt lat="43.57897" lon="2.13324">
        <ele>157.49406049132</ele>
        <time>2022-02-01T13:02:49Z</time>
      </trkpt>
      <trkpt lat="43.57891" lon="2.13316">
        <ele>158.68711967266</ele>
        <time>2022-02-01T13:02:55Z</time>
      </trkpt>
      <trkpt lat="43.57887" lon="2.13307">
        <ele>160.69912006329</ele>
        <time>2022-02-01T13:03:00Z</time>
      </trkpt>
      <trkpt lat="43.57884" lon="2.13296">
        <ele>161.77298465227</ele>
        <time>2022-02-01T13:03:08Z</time>
      </trkpt>
      <trkpt lat="43.57879" lon="2.13287">
        <ele>162.43765243815</ele>
        <time>2022-02-01T13:03:16Z</time>
      </trkpt>
      <trkpt lat="43.57873" lon="2.13279">
        <ele>162.85408916115</ele>
        <time>2022-02-01T13:03:20Z</time>
      </trkpt>
      <trkpt lat="43.57869" lon="2.13271">
        <ele>162.53260812581</ele>
        <time>2022-02-01T13:03:26Z</time>
      </trkpt>
      <trkpt lat="43.57863" lon="2.13262">
        <ele>163.80041720406</ele>
        <time>2022-02-01T13:03:31Z</time>
      </trkpt>
      <trkpt lat="43.57859" lon="2.13252">
        <ele>164.05121002826</ele>
        <time>2022-02-01T13:03:39Z</time>
      </trkpt>
      <trkpt lat="43.57856" lon="2.13242">
        <ele>163.12966451498</ele>
        <time>2022-02-01T13:03:48Z</time>
      </trkpt>
      <trkpt lat="43.57852" lon="2.13231">
        <ele>160.60886626195</ele>
        <time>2022-02-01T13:04:00Z</time>
      </trkpt>
      <trkpt lat="43.57848" lon="2.1322">
        <ele>160.27094505768</ele>
        <time>2022-02-01T13:04:08Z</time>
      </trkpt>
      <trkpt lat="43.57844" lon="2.1321">
        <ele>160.70440150773</ele>
        <time>2022-02-01T13:04:15Z</time>
      </trkpt>
      <trkpt lat="43.57838" lon="2.13202">
        <ele>160.33944318398</ele>
        <time>2022-02-01T13:04:21Z</time>
      </trkpt>
      <trkpt lat="43.57837" lon="2.13191">
        <ele>158.31080354042</ele>
        <time>2022-02-01T13:04:32Z</time>
      </trkpt>
      <trkpt lat="43.57832" lon="2.13182">
        <ele>158.53812757236</ele>
        <time>2022-02-01T13:04:39Z</time>
      </trkpt>
      <trkpt lat="43.57825" lon="2.13175">
        <ele>158.81156957735</ele>
        <time>2022-02-01T13:04:43Z</time>
      </trkpt>
      <trkpt lat="43.5782" lon="2.13167">
        <ele>159.28503735737</ele>
        <time>2022-02-01T13:04:48Z</time>
      </trkpt>
      <trkpt lat="43.57818" lon="2.13156">
        <ele>160.48031034116</ele>
        <time>2022-02-01T13:04:58Z</time>
      </trkpt>
      <trkpt lat="43.57816" lon="2.13144">
        <ele>159.78749135206</ele>
        <time>2022-02-01T13:05:12Z</time>
      </trkpt>
      <trkpt lat="43.57809" lon="2.13138">
        <ele>160.27448778292</ele>
        <time>2022-02-01T13:05:17Z</time>
      </trkpt>
      <trkpt lat="43.57814" lon="2.13127">
        <ele>161.40273122208</ele>
        <time>2022-02-01T13:05:30Z</time>
      </trkpt>
      <trkpt lat="43.57809" lon="2.13117">
        <ele>161.40158591432</ele>
        <time>2022-02-01T13:05:37Z</time>
      </trkpt>
      <trkpt lat="43.57804" lon="2.13109">
        <ele>161.16896076109</ele>
        <time>2022-02-01T13:05:43Z</time>
      </trkpt>
      <trkpt lat="43.57799" lon="2.13099">
        <ele>160.66315145682</ele>
        <time>2022-02-01T13:05:50Z</time>
      </trkpt>
      <trkpt lat="43.57795" lon="2.13088">
        <ele>160.0364087294</ele>
        <time>2022-02-01T13:05:59Z</time>
      </trkpt>
      <trkpt lat="43.57789" lon="2.1308">
        <ele>160.28638293319</ele>
        <time>2022-02-01T13:06:04Z</time>
      </trkpt>
      <trkpt lat="43.57785" lon="2.1307">
        <ele>160.31319198927</ele>
        <time>2022-02-01T13:06:11Z</time>
      </trkpt>
      <trkpt lat="43.57778" lon="2.13064">
        <ele>161.13442317926</ele>
        <time>2022-02-01T13:06:16Z</time>
      </trkpt>
      <trkpt lat="43.57771" lon="2.13056">
        <ele>162.05289009283</ele>
        <time>2022-02-01T13:06:27Z</time>
      </trkpt>
      <trkpt lat="43.57768" lon="2.13045">
        <ele>161.21980416677</ele>
        <time>2022-02-01T13:06:42Z</time>
      </trkpt>
      <trkpt lat="43.57763" lon="2.13035">
        <ele>160.52847049394</ele>
        <time>2022-02-01T13:06:49Z</time>
      </trkpt>
      <trkpt lat="43.5776" lon="2.13023">
        <ele>158.4883034272</ele>
        <time>2022-02-01T13:06:59Z</time>
      </trkpt>
      <trkpt lat="43.57756" lon="2.13013">
        <ele>159.13449518654</ele>
        <time>2022-02-01T13:07:06Z</time>
      </trkpt>
      <trkpt lat="43.57753" lon="2.13004">
        <ele>159.78351987725</ele>
        <time>2022-02-01T13:07:13Z</time>
      </trkpt>
      <trkpt lat="43.57748" lon="2.12993">
        <ele>161.05640271042</ele>
        <time>2022-02-01T13:07:21Z</time>
      </trkpt>
      <trkpt lat="43.57743" lon="2.12984">
        <ele>162.02163597958</ele>
        <time>2022-02-01T13:07:28Z</time>
      </trkpt>
      <trkpt lat="43.5774" lon="2.12974">
        <ele>163.14487531827</ele>
        <time>2022-02-01T13:07:35Z</time>
      </trkpt>
      <trkpt lat="43.57737" lon="2.12963">
        <ele>163.66442521278</ele>
        <time>2022-02-01T13:07:43Z</time>
      </trkpt>
      <trkpt lat="43.57735" lon="2.12952">
        <ele>161.95929856437</ele>
        <time>2022-02-01T13:07:54Z</time>
      </trkpt>
      <trkpt lat="43.57733" lon="2.1294">
        <ele>161.6450170994</ele>
        <time>2022-02-01T13:08:02Z</time>
      </trkpt>
      <trkpt lat="43.57728" lon="2.1293">
        <ele>160.98837366925</ele>
        <time>2022-02-01T13:08:11Z</time>
      </trkpt>
      <trkpt lat="43.57727" lon="2.12919">
        <ele>162.00806262016</ele>
        <time>2022-02-01T13:08:22Z</time>
      </trkpt>
      <trkpt lat="43.57723" lon="2.12909">
        <ele>162.032059352</ele>
        <time>2022-02-01T13:08:29Z</time>
      </trkpt>
      <trkpt lat="43.57719" lon="2.12899">
        <ele>163.03112106093</ele>
        <time>2022-02-01T13:08:36Z</time>
      </trkpt>
      <trkpt lat="43.57714" lon="2.1289">
        <ele>163.65392378659</ele>
        <time>2022-02-01T13:08:44Z</time>
      </trkpt>
      <trkpt lat="43.57712" lon="2.12879">
        <ele>162.82024634992</ele>
        <time>2022-02-01T13:08:55Z</time>
      </trkpt>
      <trkpt lat="43.57709" lon="2.12868">
        <ele>163.13797509922</ele>
        <time>2022-02-01T13:09:04Z</time>
      </trkpt>
      <trkpt lat="43.57706" lon="2.12857">
        <ele>163.91096511989</ele>
        <time>2022-02-01T13:09:12Z</time>
      </trkpt>
      <trkpt lat="43.57702" lon="2.12847">
        <ele>164.09368547286</ele>
        <time>2022-02-01T13:09:21Z</time>
      </trkpt>
      <trkpt lat="43.57698" lon="2.12837">
        <ele>164.77625629235</ele>
        <time>2022-02-01T13:09:30Z</time>
      </trkpt>
      <trkpt lat="43.57696" lon="2.12825">
        <ele>165.50442134022</ele>
        <time>2022-02-01T13:09:39Z</time>
      </trkpt>
      <trkpt lat="43.57688" lon="2.1282">
        <ele>163.47751244892</ele>
        <time>2022-02-01T13:09:46Z</time>
      </trkpt>
      <trkpt lat="43.57684" lon="2.1281">
        <ele>158.55366112879</ele>
        <time>2022-02-01T13:10:00Z</time>
      </trkpt>
      <trkpt lat="43.5768" lon="2.12798">
        <ele>158.562570212</ele>
        <time>2022-02-01T13:10:06Z</time>
      </trkpt>
      <trkpt lat="43.57675" lon="2.12789">
        <ele>158.33223149573</ele>
        <time>2022-02-01T13:10:12Z</time>
      </trkpt>
      <trkpt lat="43.5767" lon="2.1278">
        <ele>159.71238589607</ele>
        <time>2022-02-01T13:10:20Z</time>
      </trkpt>
      <trkpt lat="43.57663" lon="2.12774">
        <ele>160.25506255445</ele>
        <time>2022-02-01T13:10:28Z</time>
      </trkpt>
      <trkpt lat="43.57656" lon="2.12767">
        <ele>157.72910514038</ele>
        <time>2022-02-01T13:11:10Z</time>
      </trkpt>
      <trkpt lat="43.57649" lon="2.1276">
        <ele>157.74978546972</ele>
        <time>2022-02-01T13:11:15Z</time>
      </trkpt>
      <trkpt lat="43.57642" lon="2.12753">
        <ele>157.09522416073</ele>
        <time>2022-02-01T13:11:20Z</time>
      </trkpt>
      <trkpt lat="43.57637" lon="2.12743">
        <ele>158.66402580248</ele>
        <time>2022-02-01T13:11:26Z</time>
      </trkpt>
      <trkpt lat="43.5764" lon="2.12732">
        <ele>164.58319589228</ele>
        <time>2022-02-01T13:11:40Z</time>
      </trkpt>
      <trkpt lat="43.57637" lon="2.12722">
        <ele>166.24535419176</ele>
        <time>2022-02-01T13:11:45Z</time>
      </trkpt>
      <trkpt lat="43.57633" lon="2.12711">
        <ele>166.89663143094</ele>
        <time>2022-02-01T13:11:50Z</time>
      </trkpt>
      <trkpt lat="43.57634" lon="2.12698">
        <ele>167.76739081759</ele>
        <time>2022-02-01T13:11:54Z</time>
      </trkpt>
      <trkpt lat="43.57635" lon="2.12687">
        <ele>165.83993393632</ele>
        <time>2022-02-01T13:12:02Z</time>
      </trkpt>
      <trkpt lat="43.57635" lon="2.12675">
        <ele>166.13719116929</ele>
        <time>2022-02-01T13:12:10Z</time>
      </trkpt>
      <trkpt lat="43.57627" lon="2.1267">
        <ele>164.80297514238</ele>
        <time>2022-02-01T13:12:15Z</time>
      </trkpt>
      <trkpt lat="43.57624" lon="2.12659">
        <ele>165.25628264838</ele>
        <time>2022-02-01T13:12:24Z</time>
      </trkpt>
      <trkpt lat="43.57619" lon="2.1265">
        <ele>165.18281382924</ele>
        <time>2022-02-01T13:12:30Z</time>
      </trkpt>
      <trkpt lat="43.57616" lon="2.12639">
        <ele>164.16970582388</ele>
        <time>2022-02-01T13:12:38Z</time>
      </trkpt>
      <trkpt lat="43.57612" lon="2.1263">
        <ele>162.83267511869</ele>
        <time>2022-02-01T13:12:44Z</time>
      </trkpt>
      <trkpt lat="43.57608" lon="2.1262">
        <ele>161.78744306113</ele>
        <time>2022-02-01T13:12:50Z</time>
      </trkpt>
      <trkpt lat="43.57605" lon="2.12612">
        <ele>160.59778937339</ele>
        <time>2022-02-01T13:12:57Z</time>
      </trkpt>
      <trkpt lat="43.57597" lon="2.12601">
        <ele>162.16013466485</ele>
        <time>2022-02-01T13:13:01Z</time>
      </trkpt>
      <trkpt lat="43.57593" lon="2.12592">
        <ele>162.41602506237</ele>
        <time>2022-02-01T13:13:07Z</time>
      </trkpt>
      <trkpt lat="43.57589" lon="2.12578">
        <ele>163.17001561802</ele>
        <time>2022-02-01T13:13:12Z</time>
      </trkpt>
      <trkpt lat="43.57587" lon="2.12567">
        <ele>163.67543046228</ele>
        <time>2022-02-01T13:13:23Z</time>
      </trkpt>
      <trkpt lat="43.57583" lon="2.12556">
        <ele>165.67870800599</ele>
        <time>2022-02-01T13:13:29Z</time>
      </trkpt>
      <trkpt lat="43.57579" lon="2.12548">
        <ele>164.67303626099</ele>
        <time>2022-02-01T13:13:34Z</time>
      </trkpt>
      <trkpt lat="43.5758" lon="2.12536">
        <ele>162.89445407384</ele>
        <time>2022-02-01T13:13:45Z</time>
      </trkpt>
      <trkpt lat="43.57574" lon="2.12527">
        <ele>162.37926799331</ele>
        <time>2022-02-01T13:13:53Z</time>
      </trkpt>
      <trkpt lat="43.57572" lon="2.12516">
        <ele>161.92083771032</ele>
        <time>2022-02-01T13:14:00Z</time>
      </trkpt>
      <trkpt lat="43.57569" lon="2.12506">
        <ele>160.90443026747</ele>
        <time>2022-02-01T13:14:07Z</time>
      </trkpt>
      <trkpt lat="43.57568" lon="2.12494">
        <ele>160.04124666774</ele>
        <time>2022-02-01T13:14:15Z</time>
      </trkpt>
      <trkpt lat="43.57563" lon="2.12485">
        <ele>160.43158408822</ele>
        <time>2022-02-01T13:14:21Z</time>
      </trkpt>
      <trkpt lat="43.57559" lon="2.12475">
        <ele>160.33051654053</ele>
        <time>2022-02-01T13:14:28Z</time>
      </trkpt>
      <trkpt lat="43.57557" lon="2.12464">
        <ele>159.96614225597</ele>
        <time>2022-02-01T13:14:36Z</time>
      </trkpt>
      <trkpt lat="43.57552" lon="2.12454">
        <ele>160.20655903828</ele>
        <time>2022-02-01T13:14:43Z</time>
      </trkpt>
      <trkpt lat="43.57549" lon="2.12443">
        <ele>159.60570918863</ele>
        <time>2022-02-01T13:14:51Z</time>
      </trkpt>
      <trkpt lat="43.57546" lon="2.12433">
        <ele>159.96141926715</ele>
        <time>2022-02-01T13:14:58Z</time>
      </trkpt>
      <trkpt lat="43.57542" lon="2.12423">
        <ele>160.07132344815</ele>
        <time>2022-02-01T13:15:05Z</time>
      </trkpt>
      <trkpt lat="43.57538" lon="2.12412">
        <ele>160.20909547906</ele>
        <time>2022-02-01T13:15:11Z</time>
      </trkpt>
      <trkpt lat="43.57535" lon="2.12402">
        <ele>160.4348835178</ele>
        <time>2022-02-01T13:15:17Z</time>
      </trkpt>
      <trkpt lat="43.57532" lon="2.12392">
        <ele>160.35528923318</ele>
        <time>2022-02-01T13:15:23Z</time>
      </trkpt>
      <trkpt lat="43.57529" lon="2.12381">
        <ele>160.64337641979</ele>
        <time>2022-02-01T13:15:31Z</time>
      </trkpt>
      <trkpt lat="43.57525" lon="2.12371">
        <ele>161.41663677733</ele>
        <time>2022-02-01T13:15:38Z</time>
      </trkpt>
      <trkpt lat="43.57521" lon="2.12361">
        <ele>161.28327943964</ele>
        <time>2022-02-01T13:15:44Z</time>
      </trkpt>
      <trkpt lat="43.57519" lon="2.1235">
        <ele>161.25415098265</ele>
        <time>2022-02-01T13:15:51Z</time>
      </trkpt>
      <trkpt lat="43.57515" lon="2.12339">
        <ele>161.85464263436</ele>
        <time>2022-02-01T13:15:59Z</time>
      </trkpt>
      <trkpt lat="43.57511" lon="2.1233">
        <ele>161.64540281261</ele>
        <time>2022-02-01T13:16:05Z</time>
      </trkpt>
      <trkpt lat="43.57506" lon="2.12321">
        <ele>161.02814912609</ele>
        <time>2022-02-01T13:16:10Z</time>
      </trkpt>
      <trkpt lat="43.57502" lon="2.12311">
        <ele>162.35439295818</ele>
        <time>2022-02-01T13:16:17Z</time>
      </trkpt>
      <trkpt lat="43.57501" lon="2.123">
        <ele>163.57046038857</ele>
        <time>2022-02-01T13:16:24Z</time>
      </trkpt>
      <trkpt lat="43.575" lon="2.12289">
        <ele>164.15075167669</ele>
        <time>2022-02-01T13:16:32Z</time>
      </trkpt>
      <trkpt lat="43.57496" lon="2.12278">
        <ele>164.13679559493</ele>
        <time>2022-02-01T13:16:40Z</time>
      </trkpt>
      <trkpt lat="43.57497" lon="2.12266">
        <ele>164.672436789</ele>
        <time>2022-02-01T13:16:47Z</time>
      </trkpt>
      <trkpt lat="43.57496" lon="2.12255">
        <ele>162.57142568618</ele>
        <time>2022-02-01T13:16:54Z</time>
      </trkpt>
      <trkpt lat="43.57497" lon="2.12243">
        <ele>160.91744160536</ele>
        <time>2022-02-01T13:17:01Z</time>
      </trkpt>
      <trkpt lat="43.57501" lon="2.12231">
        <ele>161.56830262154</ele>
        <time>2022-02-01T13:17:05Z</time>
      </trkpt>
      <trkpt lat="43.57505" lon="2.12222">
        <ele>163.84267896474</ele>
        <time>2022-02-01T13:17:11Z</time>
      </trkpt>
      <trkpt lat="43.57511" lon="2.12213">
        <ele>163.15184684417</ele>
        <time>2022-02-01T13:17:20Z</time>
      </trkpt>
      <trkpt lat="43.57512" lon="2.12202">
        <ele>161.61219970784</ele>
        <time>2022-02-01T13:17:27Z</time>
      </trkpt>
      <trkpt lat="43.57517" lon="2.12192">
        <ele>161.20814698702</ele>
        <time>2022-02-01T13:17:36Z</time>
      </trkpt>
      <trkpt lat="43.5752" lon="2.12181">
        <ele>160.74339330933</ele>
        <time>2022-02-01T13:17:44Z</time>
      </trkpt>
      <trkpt lat="43.57524" lon="2.1217">
        <ele>160.5063624739</ele>
        <time>2022-02-01T13:17:53Z</time>
      </trkpt>
      <trkpt lat="43.57527" lon="2.1216">
        <ele>161.25773696735</ele>
        <time>2022-02-01T13:17:59Z</time>
      </trkpt>
      <trkpt lat="43.57533" lon="2.12152">
        <ele>162.36010095617</ele>
        <time>2022-02-01T13:18:05Z</time>
      </trkpt>
      <trkpt lat="43.57535" lon="2.12141">
        <ele>162.7414379534</ele>
        <time>2022-02-01T13:18:10Z</time>
      </trkpt>
      <trkpt lat="43.5754" lon="2.12131">
        <ele>162.85967456229</ele>
        <time>2022-02-01T13:18:17Z</time>
      </trkpt>
      <trkpt lat="43.57546" lon="2.12122">
        <ele>161.67526062919</ele>
        <time>2022-02-01T13:18:25Z</time>
      </trkpt>
      <trkpt lat="43.57554" lon="2.12115">
        <ele>162.67947781192</ele>
        <time>2022-02-01T13:18:31Z</time>
      </trkpt>
      <trkpt lat="43.57556" lon="2.12104">
        <ele>162.64451555224</ele>
        <time>2022-02-01T13:18:38Z</time>
      </trkpt>
      <trkpt lat="43.57561" lon="2.12094">
        <ele>164.57002693969</ele>
        <time>2022-02-01T13:18:45Z</time>
      </trkpt>
      <trkpt lat="43.57564" lon="2.12085">
        <ele>163.13936122615</ele>
        <time>2022-02-01T13:18:52Z</time>
      </trkpt>
      <trkpt lat="43.57567" lon="2.12074">
        <ele>161.8429033654</ele>
        <time>2022-02-01T13:18:59Z</time>
      </trkpt>
      <trkpt lat="43.57566" lon="2.12063">
        <ele>161.53925996974</ele>
        <time>2022-02-01T13:19:06Z</time>
      </trkpt>
      <trkpt lat="43.5756" lon="2.12055">
        <ele>160.33624830154</ele>
        <time>2022-02-01T13:19:16Z</time>
      </trkpt>
      <trkpt lat="43.57553" lon="2.12048">
        <ele>156.21482772562</ele>
        <time>2022-02-01T13:19:29Z</time>
      </trkpt>
      <trkpt lat="43.57551" lon="2.12036">
        <ele>155.53925945676</ele>
        <time>2022-02-01T13:19:37Z</time>
      </trkpt>
      <trkpt lat="43.57557" lon="2.12029">
        <ele>155.92627718462</ele>
        <time>2022-02-01T13:19:43Z</time>
      </trkpt>
      <trkpt lat="43.57564" lon="2.12023">
        <ele>155.84665919436</ele>
        <time>2022-02-01T13:19:49Z</time>
      </trkpt>
      <trkpt lat="43.57569" lon="2.12014">
        <ele>155.07604054682</ele>
        <time>2022-02-01T13:19:56Z</time>
      </trkpt>
      <trkpt lat="43.57575" lon="2.12005">
        <ele>153.9192205925</ele>
        <time>2022-02-01T13:20:04Z</time>
      </trkpt>
      <trkpt lat="43.57583" lon="2.12">
        <ele>153.43444467966</ele>
        <time>2022-02-01T13:20:11Z</time>
      </trkpt>
      <trkpt lat="43.57588" lon="2.11991">
        <ele>154.92745656609</ele>
        <time>2022-02-01T13:20:20Z</time>
      </trkpt>
      <trkpt lat="43.57591" lon="2.1198">
        <ele>155.96731853882</ele>
        <time>2022-02-01T13:20:25Z</time>
      </trkpt>
      <trkpt lat="43.57594" lon="2.11969">
        <ele>156.37178109867</ele>
        <time>2022-02-01T13:20:31Z</time>
      </trkpt>
      <trkpt lat="43.57595" lon="2.11957">
        <ele>157.48010123189</ele>
        <time>2022-02-01T13:20:39Z</time>
      </trkpt>
      <trkpt lat="43.57597" lon="2.11946">
        <ele>156.63369362217</ele>
        <time>2022-02-01T13:20:48Z</time>
      </trkpt>
      <trkpt lat="43.57599" lon="2.11934">
        <ele>157.07262647973</ele>
        <time>2022-02-01T13:20:55Z</time>
      </trkpt>
      <trkpt lat="43.576" lon="2.11922">
        <ele>158.03537007621</ele>
        <time>2022-02-01T13:21:02Z</time>
      </trkpt>
      <trkpt lat="43.576" lon="2.1191">
        <ele>158.41676787257</ele>
        <time>2022-02-01T13:21:09Z</time>
      </trkpt>
      <trkpt lat="43.576" lon="2.11899">
        <ele>157.99559203587</ele>
        <time>2022-02-01T13:21:16Z</time>
      </trkpt>
      <trkpt lat="43.57598" lon="2.11888">
        <ele>158.6020399009</ele>
        <time>2022-02-01T13:21:22Z</time>
      </trkpt>
      <trkpt lat="43.576" lon="2.11877">
        <ele>158.18940321076</ele>
        <time>2022-02-01T13:21:31Z</time>
      </trkpt>
      <trkpt lat="43.57601" lon="2.11865">
        <ele>157.6895185934</ele>
        <time>2022-02-01T13:21:40Z</time>
      </trkpt>
      <trkpt lat="43.57599" lon="2.11855">
        <ele>158.24861767748</ele>
        <time>2022-02-01T13:21:46Z</time>
      </trkpt>
      <trkpt lat="43.57598" lon="2.11843">
        <ele>160.84475169188</ele>
        <time>2022-02-01T13:21:54Z</time>
      </trkpt>
      <trkpt lat="43.57599" lon="2.11832">
        <ele>160.65577444767</ele>
        <time>2022-02-01T13:22:00Z</time>
      </trkpt>
      <trkpt lat="43.576" lon="2.11821">
        <ele>160.68398672469</ele>
        <time>2022-02-01T13:22:07Z</time>
      </trkpt>
      <trkpt lat="43.576" lon="2.11809">
        <ele>159.34856590052</ele>
        <time>2022-02-01T13:22:15Z</time>
      </trkpt>
      <trkpt lat="43.576" lon="2.11799">
        <ele>159.12805454155</ele>
        <time>2022-02-01T13:22:21Z</time>
      </trkpt>
      <trkpt lat="43.576" lon="2.11786">
        <ele>161.07003706481</ele>
        <time>2022-02-01T13:22:27Z</time>
      </trkpt>
      <trkpt lat="43.57603" lon="2.11775">
        <ele>160.10474740589</ele>
        <time>2022-02-01T13:22:35Z</time>
      </trkpt>
      <trkpt lat="43.57601" lon="2.11764">
        <ele>159.71119926863</ele>
        <time>2022-02-01T13:22:44Z</time>
      </trkpt>
      <trkpt lat="43.57605" lon="2.11753">
        <ele>159.79803792613</ele>
        <time>2022-02-01T13:22:51Z</time>
      </trkpt>
      <trkpt lat="43.57607" lon="2.11742">
        <ele>158.55748430189</ele>
        <time>2022-02-01T13:22:57Z</time>
      </trkpt>
      <trkpt lat="43.57611" lon="2.11731">
        <ele>157.87363939332</ele>
        <time>2022-02-01T13:23:04Z</time>
      </trkpt>
      <trkpt lat="43.57613" lon="2.11721">
        <ele>159.20509647345</ele>
        <time>2022-02-01T13:23:10Z</time>
      </trkpt>
      <trkpt lat="43.57615" lon="2.1171">
        <ele>158.27457078812</ele>
        <time>2022-02-01T13:23:19Z</time>
      </trkpt>
      <trkpt lat="43.57619" lon="2.11698">
        <ele>156.80200179358</ele>
        <time>2022-02-01T13:23:27Z</time>
      </trkpt>
      <trkpt lat="43.57623" lon="2.11688">
        <ele>158.28296060025</ele>
        <time>2022-02-01T13:23:33Z</time>
      </trkpt>
      <trkpt lat="43.57623" lon="2.11676">
        <ele>155.97055954823</ele>
        <time>2022-02-01T13:23:42Z</time>
      </trkpt>
      <trkpt lat="43.57627" lon="2.11665">
        <ele>155.49152855944</ele>
        <time>2022-02-01T13:23:49Z</time>
      </trkpt>
      <trkpt lat="43.57629" lon="2.11653">
        <ele>155.96170866503</ele>
        <time>2022-02-01T13:23:57Z</time>
      </trkpt>
      <trkpt lat="43.57629" lon="2.11641">
        <ele>156.08410971837</ele>
        <time>2022-02-01T13:24:04Z</time>
      </trkpt>
      <trkpt lat="43.57632" lon="2.11631">
        <ele>156.0682184683</ele>
        <time>2022-02-01T13:24:12Z</time>
      </trkpt>
      <trkpt lat="43.57635" lon="2.11621">
        <ele>155.05921958584</ele>
        <time>2022-02-01T13:24:19Z</time>
      </trkpt>
      <trkpt lat="43.57635" lon="2.11609">
        <ele>153.78579395798</ele>
        <time>2022-02-01T13:24:28Z</time>
      </trkpt>
      <trkpt lat="43.57635" lon="2.11598">
        <ele>153.53954913302</ele>
        <time>2022-02-01T13:24:35Z</time>
      </trkpt>
      <trkpt lat="43.57635" lon="2.11586">
        <ele>153.56442304442</ele>
        <time>2022-02-01T13:24:43Z</time>
      </trkpt>
      <trkpt lat="43.57634" lon="2.11575">
        <ele>154.26514398604</ele>
        <time>2022-02-01T13:24:49Z</time>
      </trkpt>
      <trkpt lat="43.57636" lon="2.11564">
        <ele>154.63044277774</ele>
        <time>2022-02-01T13:24:56Z</time>
      </trkpt>
      <trkpt lat="43.57632" lon="2.11554">
        <ele>155.69405636526</ele>
        <time>2022-02-01T13:25:05Z</time>
      </trkpt>
      <trkpt lat="43.57635" lon="2.11543">
        <ele>156.23661541854</ele>
        <time>2022-02-01T13:25:10Z</time>
      </trkpt>
      <trkpt lat="43.57633" lon="2.11533">
        <ele>156.53017585567</ele>
        <time>2022-02-01T13:25:15Z</time>
      </trkpt>
      <trkpt lat="43.57638" lon="2.11521">
        <ele>157.44230085179</ele>
        <time>2022-02-01T13:25:20Z</time>
      </trkpt>
      <trkpt lat="43.57634" lon="2.11511">
        <ele>157.66937088222</ele>
        <time>2022-02-01T13:25:27Z</time>
      </trkpt>
      <trkpt lat="43.57632" lon="2.115">
        <ele>157.11881148196</ele>
        <time>2022-02-01T13:25:35Z</time>
      </trkpt>
      <trkpt lat="43.5763" lon="2.1149">
        <ele>157.58117400777</ele>
        <time>2022-02-01T13:25:42Z</time>
      </trkpt>
      <trkpt lat="43.57634" lon="2.11479">
        <ele>157.30217592718</ele>
        <time>2022-02-01T13:25:49Z</time>
      </trkpt>
      <trkpt lat="43.5764" lon="2.1147">
        <ele>157.42105131148</ele>
        <time>2022-02-01T13:25:55Z</time>
      </trkpt>
      <trkpt lat="43.57647" lon="2.11467">
        <ele>158.0286282401</ele>
        <time>2022-02-01T13:26:02Z</time>
      </trkpt>
      <trkpt lat="43.57654" lon="2.11459">
        <ele>157.40694295326</ele>
        <time>2022-02-01T13:26:08Z</time>
      </trkpt>
      <trkpt lat="43.57662" lon="2.11458">
        <ele>156.54076656312</ele>
        <time>2022-02-01T13:26:16Z</time>
      </trkpt>
      <trkpt lat="43.5767" lon="2.11459">
        <ele>155.08834455145</ele>
        <time>2022-02-01T13:26:24Z</time>
      </trkpt>
      <trkpt lat="43.57677" lon="2.11457">
        <ele>157.27504796347</ele>
        <time>2022-02-01T13:26:28Z</time>
      </trkpt>
      <trkpt lat="43.57686" lon="2.11455">
        <ele>160.46865311678</ele>
        <time>2022-02-01T13:26:36Z</time>
      </trkpt>
      <trkpt lat="43.5769" lon="2.11446">
        <ele>159.97360440515</ele>
        <time>2022-02-01T13:26:44Z</time>
      </trkpt>
      <trkpt lat="43.57692" lon="2.11436">
        <ele>160.13671300001</ele>
        <time>2022-02-01T13:26:51Z</time>
      </trkpt>
      <trkpt lat="43.57691" lon="2.11424">
        <ele>160.02206410663</ele>
        <time>2022-02-01T13:27:01Z</time>
      </trkpt>
      <trkpt lat="43.57689" lon="2.11413">
        <ele>162.16841481636</ele>
        <time>2022-02-01T13:27:13Z</time>
      </trkpt>
      <trkpt lat="43.57684" lon="2.11402">
        <ele>163.07956816806</ele>
        <time>2022-02-01T13:27:24Z</time>
      </trkpt>
      <trkpt lat="43.57684" lon="2.11391">
        <ele>163.51238422805</ele>
        <time>2022-02-01T13:27:33Z</time>
      </trkpt>
      <trkpt lat="43.57684" lon="2.11379">
        <ele>163.88871973875</ele>
        <time>2022-02-01T13:27:43Z</time>
      </trkpt>
      <trkpt lat="43.57689" lon="2.1137">
        <ele>166.13373802794</ele>
        <time>2022-02-01T13:27:50Z</time>
      </trkpt>
      <trkpt lat="43.57687" lon="2.11358">
        <ele>168.2465262217</ele>
        <time>2022-02-01T13:27:59Z</time>
      </trkpt>
      <trkpt lat="43.57684" lon="2.11348">
        <ele>169.41324959699</ele>
        <time>2022-02-01T13:28:07Z</time>
      </trkpt>
      <trkpt lat="43.57677" lon="2.11339">
        <ele>169.46130925792</ele>
        <time>2022-02-01T13:28:16Z</time>
      </trkpt>
      <trkpt lat="43.57675" lon="2.11328">
        <ele>169.91936808166</ele>
        <time>2022-02-01T13:28:25Z</time>
      </trkpt>
      <trkpt lat="43.57674" lon="2.11316">
        <ele>170.46933368215</ele>
        <time>2022-02-01T13:28:37Z</time>
      </trkpt>
      <trkpt lat="43.57675" lon="2.11305">
        <ele>171.37254371625</ele>
        <time>2022-02-01T13:28:45Z</time>
      </trkpt>
      <trkpt lat="43.57676" lon="2.11293">
        <ele>172.00245875845</ele>
        <time>2022-02-01T13:28:56Z</time>
      </trkpt>
      <trkpt lat="43.57676" lon="2.11281">
        <ele>174.4633442717</ele>
        <time>2022-02-01T13:29:07Z</time>
      </trkpt>
      <trkpt lat="43.57672" lon="2.1127">
        <ele>175.66589021407</ele>
        <time>2022-02-01T13:29:19Z</time>
      </trkpt>
      <trkpt lat="43.57663" lon="2.11268">
        <ele>173.96789154937</ele>
        <time>2022-02-01T13:29:27Z</time>
      </trkpt>
      <trkpt lat="43.57656" lon="2.11264">
        <ele>172.47250796266</ele>
        <time>2022-02-01T13:29:32Z</time>
      </trkpt>
      <trkpt lat="43.57648" lon="2.11262">
        <ele>172.76322899986</ele>
        <time>2022-02-01T13:29:37Z</time>
      </trkpt>
      <trkpt lat="43.57642" lon="2.11255">
        <ele>172.32939100113</ele>
        <time>2022-02-01T13:29:44Z</time>
      </trkpt>
      <trkpt lat="43.57635" lon="2.11248">
        <ele>172.718723053</ele>
        <time>2022-02-01T13:29:53Z</time>
      </trkpt>
      <trkpt lat="43.57627" lon="2.11253">
        <ele>172.33203070775</ele>
        <time>2022-02-01T13:29:59Z</time>
      </trkpt>
      <trkpt lat="43.57619" lon="2.11254">
        <ele>172.97639334345</ele>
        <time>2022-02-01T13:30:08Z</time>
      </trkpt>
      <trkpt lat="43.57612" lon="2.11261">
        <ele>169.08178602678</ele>
        <time>2022-02-01T13:30:19Z</time>
      </trkpt>
      <trkpt lat="43.57608" lon="2.11271">
        <ele>165.85524821052</ele>
        <time>2022-02-01T13:30:26Z</time>
      </trkpt>
      <trkpt lat="43.57609" lon="2.11283">
        <ele>163.63939517967</ele>
        <time>2022-02-01T13:30:36Z</time>
      </trkpt>
      <trkpt lat="43.57614" lon="2.11293">
        <ele>161.97354325026</ele>
        <time>2022-02-01T13:30:49Z</time>
      </trkpt>
      <trkpt lat="43.57612" lon="2.11305">
        <ele>161.04894914178</ele>
        <time>2022-02-01T13:31:54Z</time>
      </trkpt>
      <trkpt lat="43.57605" lon="2.11306">
        <ele>164.13832551243</ele>
        <time>2022-02-01T13:35:36Z</time>
      </trkpt>
      <trkpt lat="43.57597" lon="2.113">
        <ele>164.48399616224</ele>
        <time>2022-02-01T13:35:46Z</time>
      </trkpt>
      <trkpt lat="43.57596" lon="2.11288">
        <ele>166.303653641</ele>
        <time>2022-02-01T13:36:27Z</time>
      </trkpt>
      <trkpt lat="43.57591" lon="2.1128">
        <ele>167.07223399228</ele>
        <time>2022-02-01T13:36:38Z</time>
      </trkpt>
      <trkpt lat="43.57584" lon="2.11274">
        <ele>165.66132007191</ele>
        <time>2022-02-01T13:36:44Z</time>
      </trkpt>
      <trkpt lat="43.57575" lon="2.11275">
        <ele>164.21704711335</ele>
        <time>2022-02-01T13:36:53Z</time>
      </trkpt>
      <trkpt lat="43.57567" lon="2.11276">
        <ele>162.10805199314</ele>
        <time>2022-02-01T13:37:00Z</time>
      </trkpt>
      <trkpt lat="43.5756" lon="2.11275">
        <ele>161.50181263968</ele>
        <time>2022-02-01T13:37:07Z</time>
      </trkpt>
      <trkpt lat="43.57551" lon="2.11274">
        <ele>162.38310838447</ele>
        <time>2022-02-01T13:37:14Z</time>
      </trkpt>
      <trkpt lat="43.57542" lon="2.11276">
        <ele>161.66975752368</ele>
        <time>2022-02-01T13:37:23Z</time>
      </trkpt>
      <trkpt lat="43.57537" lon="2.11285">
        <ele>162.75483251046</ele>
        <time>2022-02-01T13:37:35Z</time>
      </trkpt>
      <trkpt lat="43.57533" lon="2.11295">
        <ele>162.70425559257</ele>
        <time>2022-02-01T13:37:44Z</time>
      </trkpt>
      <trkpt lat="43.57529" lon="2.11306">
        <ele>164.51031235874</ele>
        <time>2022-02-01T13:37:57Z</time>
      </trkpt>
      <trkpt lat="43.57526" lon="2.11317">
        <ele>164.86998169537</ele>
        <time>2022-02-01T13:38:05Z</time>
      </trkpt>
      <trkpt lat="43.57523" lon="2.11328">
        <ele>164.40866018893</ele>
        <time>2022-02-01T13:38:14Z</time>
      </trkpt>
      <trkpt lat="43.57519" lon="2.11338">
        <ele>165.42626557287</ele>
        <time>2022-02-01T13:38:22Z</time>
      </trkpt>
      <trkpt lat="43.57513" lon="2.11348">
        <ele>166.1911776732</ele>
        <time>2022-02-01T13:38:32Z</time>
      </trkpt>
      <trkpt lat="43.57508" lon="2.11356">
        <ele>165.90890206934</ele>
        <time>2022-02-01T13:38:41Z</time>
      </trkpt>
      <trkpt lat="43.575" lon="2.1136">
        <ele>164.29197242628</ele>
        <time>2022-02-01T13:38:49Z</time>
      </trkpt>
      <trkpt lat="43.57491" lon="2.11365">
        <ele>162.86239475015</ele>
        <time>2022-02-01T13:38:57Z</time>
      </trkpt>
      <trkpt lat="43.57482" lon="2.11367">
        <ele>162.42936985713</ele>
        <time>2022-02-01T13:39:06Z</time>
      </trkpt>
      <trkpt lat="43.57474" lon="2.1137">
        <ele>161.65345311946</ele>
        <time>2022-02-01T13:39:15Z</time>
      </trkpt>
      <trkpt lat="43.57466" lon="2.11373">
        <ele>161.5183561632</ele>
        <time>2022-02-01T13:39:22Z</time>
      </trkpt>
      <trkpt lat="43.57457" lon="2.11375">
        <ele>161.27103301399</ele>
        <time>2022-02-01T13:39:32Z</time>
      </trkpt>
      <trkpt lat="43.57448" lon="2.11376">
        <ele>161.56326134416</ele>
        <time>2022-02-01T13:39:39Z</time>
      </trkpt>
      <trkpt lat="43.5744" lon="2.11372">
        <ele>159.40078847043</ele>
        <time>2022-02-01T13:39:49Z</time>
      </trkpt>
      <trkpt lat="43.57432" lon="2.11376">
        <ele>159.6428609206</ele>
        <time>2022-02-01T13:39:56Z</time>
      </trkpt>
      <trkpt lat="43.57423" lon="2.11375">
        <ele>157.36253463194</ele>
        <time>2022-02-01T13:40:05Z</time>
      </trkpt>
      <trkpt lat="43.57415" lon="2.11376">
        <ele>157.51239610435</ele>
        <time>2022-02-01T13:40:13Z</time>
      </trkpt>
      <trkpt lat="43.57408" lon="2.11379">
        <ele>157.64586406532</ele>
        <time>2022-02-01T13:40:23Z</time>
      </trkpt>
      <trkpt lat="43.57399" lon="2.11381">
        <ele>159.26207794931</ele>
        <time>2022-02-01T13:40:30Z</time>
      </trkpt>
      <trkpt lat="43.5739" lon="2.11379">
        <ele>160.44617431099</ele>
        <time>2022-02-01T13:40:38Z</time>
      </trkpt>
      <trkpt lat="43.57382" lon="2.11377">
        <ele>161.15103896852</ele>
        <time>2022-02-01T13:40:47Z</time>
      </trkpt>
      <trkpt lat="43.57374" lon="2.11374">
        <ele>161.59869982327</ele>
        <time>2022-02-01T13:40:54Z</time>
      </trkpt>
      <trkpt lat="43.57365" lon="2.11374">
        <ele>161.32401845347</ele>
        <time>2022-02-01T13:41:01Z</time>
      </trkpt>
      <trkpt lat="43.57358" lon="2.11368">
        <ele>161.04264875766</ele>
        <time>2022-02-01T13:41:08Z</time>
      </trkpt>
      <trkpt lat="43.57351" lon="2.11361">
        <ele>159.95407144332</ele>
        <time>2022-02-01T13:41:17Z</time>
      </trkpt>
      <trkpt lat="43.57345" lon="2.11354">
        <ele>160.18072762046</ele>
        <time>2022-02-01T13:41:25Z</time>
      </trkpt>
      <trkpt lat="43.57337" lon="2.11351">
        <ele>160.87377529608</ele>
        <time>2022-02-01T13:41:35Z</time>
      </trkpt>
      <trkpt lat="43.57329" lon="2.11348">
        <ele>159.43038153512</ele>
        <time>2022-02-01T13:41:44Z</time>
      </trkpt>
      <trkpt lat="43.5732" lon="2.1135">
        <ele>159.637667102</ele>
        <time>2022-02-01T13:41:55Z</time>
      </trkpt>
      <trkpt lat="43.57312" lon="2.11348">
        <ele>161.35380094203</ele>
        <time>2022-02-01T13:42:01Z</time>
      </trkpt>
      <trkpt lat="43.57304" lon="2.11345">
        <ele>162.80485569681</ele>
        <time>2022-02-01T13:42:10Z</time>
      </trkpt>
      <trkpt lat="43.57296" lon="2.11341">
        <ele>162.73207507343</ele>
        <time>2022-02-01T13:42:18Z</time>
      </trkpt>
      <trkpt lat="43.57288" lon="2.11337">
        <ele>162.88999462843</ele>
        <time>2022-02-01T13:42:26Z</time>
      </trkpt>
      <trkpt lat="43.5728" lon="2.11333">
        <ele>165.09474146312</ele>
        <time>2022-02-01T13:42:34Z</time>
      </trkpt>
      <trkpt lat="43.57273" lon="2.11328">
        <ele>164.5728887923</ele>
        <time>2022-02-01T13:42:41Z</time>
      </trkpt>
      <trkpt lat="43.57264" lon="2.11325">
        <ele>166.21701149991</ele>
        <time>2022-02-01T13:42:50Z</time>
      </trkpt>
      <trkpt lat="43.57256" lon="2.1133">
        <ele>167.20144939791</ele>
        <time>2022-02-01T13:43:04Z</time>
      </trkpt>
      <trkpt lat="43.57248" lon="2.11328">
        <ele>168.49766991359</ele>
        <time>2022-02-01T13:43:10Z</time>
      </trkpt>
      <trkpt lat="43.5724" lon="2.11323">
        <ele>169.74363217048</ele>
        <time>2022-02-01T13:43:15Z</time>
      </trkpt>
      <trkpt lat="43.57232" lon="2.11322">
        <ele>170.83223190781</ele>
        <time>2022-02-01T13:43:22Z</time>
      </trkpt>
      <trkpt lat="43.57223" lon="2.11321">
        <ele>170.43339148857</ele>
        <time>2022-02-01T13:43:30Z</time>
      </trkpt>
      <trkpt lat="43.57214" lon="2.11323">
        <ele>168.87688444227</ele>
        <time>2022-02-01T13:43:43Z</time>
      </trkpt>
      <trkpt lat="43.57209" lon="2.11333">
        <ele>169.99859083132</ele>
        <time>2022-02-01T13:43:52Z</time>
      </trkpt>
      <trkpt lat="43.57204" lon="2.11342">
        <ele>173.17131380622</ele>
        <time>2022-02-01T13:44:00Z</time>
      </trkpt>
      <trkpt lat="43.57198" lon="2.11351">
        <ele>176.96839541966</ele>
        <time>2022-02-01T13:44:09Z</time>
      </trkpt>
      <trkpt lat="43.57189" lon="2.1135">
        <ele>180.08498592172</ele>
        <time>2022-02-01T13:44:18Z</time>
      </trkpt>
      <trkpt lat="43.57182" lon="2.11357">
        <ele>179.82584628516</ele>
        <time>2022-02-01T13:44:26Z</time>
      </trkpt>
      <trkpt lat="43.57176" lon="2.11365">
        <ele>180.05335606924</ele>
        <time>2022-02-01T13:44:34Z</time>
      </trkpt>
      <trkpt lat="43.5717" lon="2.11373">
        <ele>180.20929313949</ele>
        <time>2022-02-01T13:44:40Z</time>
      </trkpt>
      <trkpt lat="43.57162" lon="2.11379">
        <ele>180.73420097087</ele>
        <time>2022-02-01T13:44:59Z</time>
      </trkpt>
      <trkpt lat="43.57155" lon="2.11385">
        <ele>181.52252583957</ele>
        <time>2022-02-01T13:45:05Z</time>
      </trkpt>
      <trkpt lat="43.57149" lon="2.11393">
        <ele>181.97813805869</ele>
        <time>2022-02-01T13:45:18Z</time>
      </trkpt>
      <trkpt lat="43.57142" lon="2.114">
        <ele>182.0179730527</ele>
        <time>2022-02-01T13:45:27Z</time>
      </trkpt>
      <trkpt lat="43.57135" lon="2.11408">
        <ele>181.14753668503</ele>
        <time>2022-02-01T13:45:36Z</time>
      </trkpt>
      <trkpt lat="43.57126" lon="2.11409">
        <ele>178.90350110203</ele>
        <time>2022-02-01T13:45:46Z</time>
      </trkpt>
      <trkpt lat="43.57125" lon="2.11398">
        <ele>177.79406345884</ele>
        <time>2022-02-01T13:46:03Z</time>
      </trkpt>
      <trkpt lat="43.5713" lon="2.11389">
        <ele>176.61043224216</ele>
        <time>2022-02-01T13:46:11Z</time>
      </trkpt>
      <trkpt lat="43.57134" lon="2.11377">
        <ele>177.48548402087</ele>
        <time>2022-02-01T13:46:21Z</time>
      </trkpt>
      <trkpt lat="43.57137" lon="2.11367">
        <ele>179.61574834119</ele>
        <time>2022-02-01T13:46:32Z</time>
      </trkpt>
      <trkpt lat="43.57139" lon="2.11355">
        <ele>180.46559895813</ele>
        <time>2022-02-01T13:46:43Z</time>
      </trkpt>
      <trkpt lat="43.57141" lon="2.11344">
        <ele>180.3329544435</ele>
        <time>2022-02-01T13:46:54Z</time>
      </trkpt>
      <trkpt lat="43.5714" lon="2.11332">
        <ele>181.11134488645</ele>
        <time>2022-02-01T13:47:05Z</time>
      </trkpt>
      <trkpt lat="43.57142" lon="2.11321">
        <ele>182.13477034442</ele>
        <time>2022-02-01T13:47:14Z</time>
      </trkpt>
      <trkpt lat="43.57141" lon="2.11309">
        <ele>182.52665215166</ele>
        <time>2022-02-01T13:47:23Z</time>
      </trkpt>
      <trkpt lat="43.57142" lon="2.11297">
        <ele>182.63003111189</ele>
        <time>2022-02-01T13:47:31Z</time>
      </trkpt>
      <trkpt lat="43.57144" lon="2.11286">
        <ele>184.02212228022</ele>
        <time>2022-02-01T13:47:40Z</time>
      </trkpt>
      <trkpt lat="43.57148" lon="2.11276">
        <ele>186.48044518964</ele>
        <time>2022-02-01T13:47:49Z</time>
      </trkpt>
      <trkpt lat="43.57147" lon="2.11264">
        <ele>187.38337976596</ele>
        <time>2022-02-01T13:47:56Z</time>
      </trkpt>
      <trkpt lat="43.57146" lon="2.11253">
        <ele>187.85010620163</ele>
        <time>2022-02-01T13:48:04Z</time>
      </trkpt>
      <trkpt lat="43.57145" lon="2.11242">
        <ele>188.16057150166</ele>
        <time>2022-02-01T13:48:12Z</time>
      </trkpt>
      <trkpt lat="43.57143" lon="2.11231">
        <ele>186.55883365395</ele>
        <time>2022-02-01T13:48:20Z</time>
      </trkpt>
      <trkpt lat="43.57141" lon="2.11219">
        <ele>185.76426250834</ele>
        <time>2022-02-01T13:48:28Z</time>
      </trkpt>
      <trkpt lat="43.57138" lon="2.11209">
        <ele>184.59064144501</ele>
        <time>2022-02-01T13:48:37Z</time>
      </trkpt>
      <trkpt lat="43.57131" lon="2.112">
        <ele>183.03063363769</ele>
        <time>2022-02-01T13:48:47Z</time>
      </trkpt>
      <trkpt lat="43.57128" lon="2.1119">
        <ele>183.87456308998</ele>
        <time>2022-02-01T13:48:58Z</time>
      </trkpt>
      <trkpt lat="43.57122" lon="2.11181">
        <ele>183.45883013249</ele>
        <time>2022-02-01T13:49:06Z</time>
      </trkpt>
      <trkpt lat="43.57116" lon="2.11174">
        <ele>181.94053024882</ele>
        <time>2022-02-01T13:49:12Z</time>
      </trkpt>
      <trkpt lat="43.57113" lon="2.11162">
        <ele>181.46781654254</ele>
        <time>2022-02-01T13:49:20Z</time>
      </trkpt>
      <trkpt lat="43.57113" lon="2.1115">
        <ele>182.51641815766</ele>
        <time>2022-02-01T13:49:29Z</time>
      </trkpt>
      <trkpt lat="43.57114" lon="2.11138">
        <ele>184.54848216979</ele>
        <time>2022-02-01T13:49:39Z</time>
      </trkpt>
      <trkpt lat="43.57116" lon="2.11127">
        <ele>184.62370524524</ele>
        <time>2022-02-01T13:49:47Z</time>
      </trkpt>
      <trkpt lat="43.57119" lon="2.11116">
        <ele>185.66337916349</ele>
        <time>2022-02-01T13:49:55Z</time>
      </trkpt>
      <trkpt lat="43.57118" lon="2.11104">
        <ele>188.07952878236</ele>
        <time>2022-02-01T13:50:03Z</time>
      </trkpt>
      <trkpt lat="43.5712" lon="2.11092">
        <ele>189.56266312839</ele>
        <time>2022-02-01T13:50:11Z</time>
      </trkpt>
      <trkpt lat="43.57124" lon="2.11083">
        <ele>191.39488619389</ele>
        <time>2022-02-01T13:50:20Z</time>
      </trkpt>
      <trkpt lat="43.57128" lon="2.11073">
        <ele>192.33531941146</ele>
        <time>2022-02-01T13:50:29Z</time>
      </trkpt>
      <trkpt lat="43.5713" lon="2.11061">
        <ele>194.65502410349</ele>
        <time>2022-02-01T13:50:37Z</time>
      </trkpt>
      <trkpt lat="43.57129" lon="2.11049">
        <ele>195.17799782214</ele>
        <time>2022-02-01T13:50:49Z</time>
      </trkpt>
      <trkpt lat="43.57129" lon="2.11037">
        <ele>195.46532726528</ele>
        <time>2022-02-01T13:50:57Z</time>
      </trkpt>
      <trkpt lat="43.57127" lon="2.11026">
        <ele>196.53861933198</ele>
        <time>2022-02-01T13:51:06Z</time>
      </trkpt>
      <trkpt lat="43.57126" lon="2.11014">
        <ele>197.63083290823</ele>
        <time>2022-02-01T13:51:15Z</time>
      </trkpt>
      <trkpt lat="43.57127" lon="2.11002">
        <ele>199.37349326602</ele>
        <time>2022-02-01T13:51:25Z</time>
      </trkpt>
      <trkpt lat="43.57126" lon="2.10991">
        <ele>198.5280021202</ele>
        <time>2022-02-01T13:51:32Z</time>
      </trkpt>
      <trkpt lat="43.57125" lon="2.1098">
        <ele>198.05022639182</ele>
        <time>2022-02-01T13:51:40Z</time>
      </trkpt>
      <trkpt lat="43.57125" lon="2.10968">
        <ele>198.76859997915</ele>
        <time>2022-02-01T13:51:49Z</time>
      </trkpt>
      <trkpt lat="43.57124" lon="2.10957">
        <ele>199.08545091091</ele>
        <time>2022-02-01T13:51:56Z</time>
      </trkpt>
      <trkpt lat="43.57123" lon="2.10945">
        <ele>200.16040615097</ele>
        <time>2022-02-01T13:52:04Z</time>
      </trkpt>
      <trkpt lat="43.57121" lon="2.10934">
        <ele>200.20044737169</ele>
        <time>2022-02-01T13:52:11Z</time>
      </trkpt>
      <trkpt lat="43.5712" lon="2.10924">
        <ele>199.61981897959</ele>
        <time>2022-02-01T13:52:17Z</time>
      </trkpt>
      <trkpt lat="43.5712" lon="2.10911">
        <ele>199.25910230069</ele>
        <time>2022-02-01T13:52:24Z</time>
      </trkpt>
      <trkpt lat="43.57123" lon="2.109">
        <ele>199.0399755783</ele>
        <time>2022-02-01T13:52:33Z</time>
      </trkpt>
      <trkpt lat="43.57123" lon="2.10889">
        <ele>199.45290134326</ele>
        <time>2022-02-01T13:52:43Z</time>
      </trkpt>
      <trkpt lat="43.57124" lon="2.10877">
        <ele>200.80301710611</ele>
        <time>2022-02-01T13:52:49Z</time>
      </trkpt>
      <trkpt lat="43.57126" lon="2.10866">
        <ele>202.2419710924</ele>
        <time>2022-02-01T13:52:55Z</time>
      </trkpt>
      <trkpt lat="43.57124" lon="2.10855">
        <ele>201.41629419057</ele>
        <time>2022-02-01T13:53:03Z</time>
      </trkpt>
      <trkpt lat="43.57125" lon="2.10844">
        <ele>200.66882955691</ele>
        <time>2022-02-01T13:53:11Z</time>
      </trkpt>
      <trkpt lat="43.57126" lon="2.10832">
        <ele>202.82581547738</ele>
        <time>2022-02-01T13:53:20Z</time>
      </trkpt>
      <trkpt lat="43.57127" lon="2.1082">
        <ele>202.08343587391</ele>
        <time>2022-02-01T13:53:29Z</time>
      </trkpt>
      <trkpt lat="43.57126" lon="2.10809">
        <ele>201.53896627696</ele>
        <time>2022-02-01T13:53:35Z</time>
      </trkpt>
      <trkpt lat="43.57128" lon="2.10798">
        <ele>200.14651719603</ele>
        <time>2022-02-01T13:53:41Z</time>
      </trkpt>
      <trkpt lat="43.57131" lon="2.10787">
        <ele>198.77020722612</ele>
        <time>2022-02-01T13:53:49Z</time>
      </trkpt>
      <trkpt lat="43.57133" lon="2.10776">
        <ele>197.84530729212</ele>
        <time>2022-02-01T13:53:56Z</time>
      </trkpt>
      <trkpt lat="43.57136" lon="2.10764">
        <ele>196.96671774883</ele>
        <time>2022-02-01T13:54:04Z</time>
      </trkpt>
      <trkpt lat="43.57141" lon="2.10753">
        <ele>196.21487385638</ele>
        <time>2022-02-01T13:54:12Z</time>
      </trkpt>
      <trkpt lat="43.57148" lon="2.10746">
        <ele>196.08224654578</ele>
        <time>2022-02-01T13:54:21Z</time>
      </trkpt>
      <trkpt lat="43.57156" lon="2.10743">
        <ele>196.60688273507</ele>
        <time>2022-02-01T13:54:29Z</time>
      </trkpt>
      <trkpt lat="43.57164" lon="2.10742">
        <ele>197.51449115454</ele>
        <time>2022-02-01T13:54:36Z</time>
      </trkpt>
      <trkpt lat="43.57172" lon="2.10744">
        <ele>198.95556326246</ele>
        <time>2022-02-01T13:54:42Z</time>
      </trkpt>
      <trkpt lat="43.5718" lon="2.10746">
        <ele>200.38353962604</ele>
        <time>2022-02-01T13:54:48Z</time>
      </trkpt>
      <trkpt lat="43.57188" lon="2.10749">
        <ele>201.67626829777</ele>
        <time>2022-02-01T13:54:55Z</time>
      </trkpt>
      <trkpt lat="43.57196" lon="2.10753">
        <ele>202.44196305238</ele>
        <time>2022-02-01T13:55:01Z</time>
      </trkpt>
      <trkpt lat="43.57204" lon="2.10756">
        <ele>202.75398876782</ele>
        <time>2022-02-01T13:55:06Z</time>
      </trkpt>
      <trkpt lat="43.57212" lon="2.10761">
        <ele>203.02565073501</ele>
        <time>2022-02-01T13:55:21Z</time>
      </trkpt>
      <trkpt lat="43.5722" lon="2.10765">
        <ele>204.88191899549</ele>
        <time>2022-02-01T13:55:33Z</time>
      </trkpt>
      <trkpt lat="43.57228" lon="2.10771">
        <ele>205.53379368297</ele>
        <time>2022-02-01T13:55:40Z</time>
      </trkpt>
      <trkpt lat="43.57236" lon="2.10775">
        <ele>205.94483639962</ele>
        <time>2022-02-01T13:55:47Z</time>
      </trkpt>
      <trkpt lat="43.57243" lon="2.1078">
        <ele>207.00437311999</ele>
        <time>2022-02-01T13:55:52Z</time>
      </trkpt>
      <trkpt lat="43.57249" lon="2.10789">
        <ele>208.47871795139</ele>
        <time>2022-02-01T13:56:02Z</time>
      </trkpt>
      <trkpt lat="43.57257" lon="2.10792">
        <ele>209.04540555958</ele>
        <time>2022-02-01T13:56:10Z</time>
      </trkpt>
      <trkpt lat="43.57264" lon="2.10799">
        <ele>208.90986892877</ele>
        <time>2022-02-01T13:56:19Z</time>
      </trkpt>
      <trkpt lat="43.57273" lon="2.10801">
        <ele>209.16330653046</ele>
        <time>2022-02-01T13:56:26Z</time>
      </trkpt>
      <trkpt lat="43.57281" lon="2.10804">
        <ele>209.27504905258</ele>
        <time>2022-02-01T13:56:33Z</time>
      </trkpt>
      <trkpt lat="43.57288" lon="2.10809">
        <ele>208.34250919705</ele>
        <time>2022-02-01T13:56:41Z</time>
      </trkpt>
      <trkpt lat="43.57296" lon="2.10816">
        <ele>209.85207358429</ele>
        <time>2022-02-01T13:56:49Z</time>
      </trkpt>
      <trkpt lat="43.57304" lon="2.10819">
        <ele>210.83922601622</ele>
        <time>2022-02-01T13:56:56Z</time>
      </trkpt>
      <trkpt lat="43.57312" lon="2.10823">
        <ele>212.31273520407</ele>
        <time>2022-02-01T13:57:03Z</time>
      </trkpt>
      <trkpt lat="43.5732" lon="2.10828">
        <ele>212.80248875289</ele>
        <time>2022-02-01T13:57:11Z</time>
      </trkpt>
      <trkpt lat="43.57328" lon="2.10831">
        <ele>210.94270610473</ele>
        <time>2022-02-01T13:57:23Z</time>
      </trkpt>
      <trkpt lat="43.57336" lon="2.10833">
        <ele>211.76480880415</ele>
        <time>2022-02-01T13:57:29Z</time>
      </trkpt>
      <trkpt lat="43.57343" lon="2.10836">
        <ele>212.54878651445</ele>
        <time>2022-02-01T13:57:37Z</time>
      </trkpt>
      <trkpt lat="43.57352" lon="2.10838">
        <ele>212.38882676024</ele>
        <time>2022-02-01T13:57:43Z</time>
      </trkpt>
      <trkpt lat="43.5736" lon="2.10842">
        <ele>213.25340041041</ele>
        <time>2022-02-01T13:57:51Z</time>
      </trkpt>
      <trkpt lat="43.57367" lon="2.10848">
        <ele>213.88138320029</ele>
        <time>2022-02-01T13:58:00Z</time>
      </trkpt>
      <trkpt lat="43.57376" lon="2.1085">
        <ele>212.9538447055</ele>
        <time>2022-02-01T13:58:07Z</time>
      </trkpt>
      <trkpt lat="43.57383" lon="2.10842">
        <ele>210.98288582</ele>
        <time>2022-02-01T13:58:17Z</time>
      </trkpt>
      <trkpt lat="43.57383" lon="2.1083">
        <ele>211.27819370072</ele>
        <time>2022-02-01T13:58:26Z</time>
      </trkpt>
      <trkpt lat="43.57383" lon="2.10819">
        <ele>208.4369555255</ele>
        <time>2022-02-01T13:58:35Z</time>
      </trkpt>
      <trkpt lat="43.57382" lon="2.10807">
        <ele>207.26575176097</ele>
        <time>2022-02-01T13:58:42Z</time>
      </trkpt>
      <trkpt lat="43.57382" lon="2.10795">
        <ele>206.38950791334</ele>
        <time>2022-02-01T13:58:51Z</time>
      </trkpt>
      <trkpt lat="43.57382" lon="2.10783">
        <ele>205.37456075133</ele>
        <time>2022-02-01T13:59:00Z</time>
      </trkpt>
      <trkpt lat="43.5738" lon="2.10772">
        <ele>205.23722929753</ele>
        <time>2022-02-01T13:59:06Z</time>
      </trkpt>
      <trkpt lat="43.57379" lon="2.10761">
        <ele>205.17587047394</ele>
        <time>2022-02-01T13:59:14Z</time>
      </trkpt>
      <trkpt lat="43.57379" lon="2.1075">
        <ele>205.61965806326</ele>
        <time>2022-02-01T13:59:22Z</time>
      </trkpt>
      <trkpt lat="43.5738" lon="2.10738">
        <ele>205.97380277201</ele>
        <time>2022-02-01T13:59:29Z</time>
      </trkpt>
      <trkpt lat="43.57379" lon="2.10726">
        <ele>205.91180612716</ele>
        <time>2022-02-01T13:59:36Z</time>
      </trkpt>
      <trkpt lat="43.57379" lon="2.10714">
        <ele>205.12914460196</ele>
        <time>2022-02-01T13:59:46Z</time>
      </trkpt>
      <trkpt lat="43.5738" lon="2.10703">
        <ele>204.49739147881</ele>
        <time>2022-02-01T13:59:54Z</time>
      </trkpt>
      <trkpt lat="43.57379" lon="2.10691">
        <ele>204.19245773718</ele>
        <time>2022-02-01T14:00:02Z</time>
      </trkpt>
      <trkpt lat="43.57378" lon="2.1068">
        <ele>205.38071483267</ele>
        <time>2022-02-01T14:00:09Z</time>
      </trkpt>
      <trkpt lat="43.57379" lon="2.1067">
        <ele>206.33192032205</ele>
        <time>2022-02-01T14:00:15Z</time>
      </trkpt>
      <trkpt lat="43.57381" lon="2.10659">
        <ele>207.49878918244</ele>
        <time>2022-02-01T14:00:22Z</time>
      </trkpt>
      <trkpt lat="43.57381" lon="2.10648">
        <ele>208.0393127463</ele>
        <time>2022-02-01T14:00:29Z</time>
      </trkpt>
      <trkpt lat="43.5738" lon="2.10637">
        <ele>209.02670381773</ele>
        <time>2022-02-01T14:00:36Z</time>
      </trkpt>
      <trkpt lat="43.57379" lon="2.10625">
        <ele>207.75170380362</ele>
        <time>2022-02-01T14:00:44Z</time>
      </trkpt>
      <trkpt lat="43.5738" lon="2.10614">
        <ele>208.244683998</ele>
        <time>2022-02-01T14:00:50Z</time>
      </trkpt>
      <trkpt lat="43.5738" lon="2.10603">
        <ele>208.9543443083</ele>
        <time>2022-02-01T14:00:57Z</time>
      </trkpt>
      <trkpt lat="43.5738" lon="2.10591">
        <ele>209.75615915544</ele>
        <time>2022-02-01T14:01:06Z</time>
      </trkpt>
      <trkpt lat="43.57382" lon="2.1058">
        <ele>211.76040446214</ele>
        <time>2022-02-01T14:01:15Z</time>
      </trkpt>
      <trkpt lat="43.57384" lon="2.1057">
        <ele>213.94905391954</ele>
        <time>2022-02-01T14:01:25Z</time>
      </trkpt>
      <trkpt lat="43.57386" lon="2.10558">
        <ele>217.09426476421</ele>
        <time>2022-02-01T14:01:34Z</time>
      </trkpt>
      <trkpt lat="43.57384" lon="2.10547">
        <ele>219.69197989856</ele>
        <time>2022-02-01T14:01:42Z</time>
      </trkpt>
      <trkpt lat="43.57383" lon="2.10534">
        <ele>221.5965825352</ele>
        <time>2022-02-01T14:01:51Z</time>
      </trkpt>
      <trkpt lat="43.57382" lon="2.10522">
        <ele>224.96946421516</ele>
        <time>2022-02-01T14:02:00Z</time>
      </trkpt>
      <trkpt lat="43.57383" lon="2.10511">
        <ele>225.46522826444</ele>
        <time>2022-02-01T14:02:11Z</time>
      </trkpt>
      <trkpt lat="43.57385" lon="2.105">
        <ele>226.80177222486</ele>
        <time>2022-02-01T14:02:18Z</time>
      </trkpt>
      <trkpt lat="43.57386" lon="2.1049">
        <ele>228.1935018574</ele>
        <time>2022-02-01T14:02:24Z</time>
      </trkpt>
      <trkpt lat="43.57388" lon="2.1048">
        <ele>227.80110233307</ele>
        <time>2022-02-01T14:02:29Z</time>
      </trkpt>
      <trkpt lat="43.5739" lon="2.10467">
        <ele>227.91917226491</ele>
        <time>2022-02-01T14:02:34Z</time>
      </trkpt>
      <trkpt lat="43.57392" lon="2.10457">
        <ele>224.56800037303</ele>
        <time>2022-02-01T14:02:40Z</time>
      </trkpt>
      <trkpt lat="43.57395" lon="2.10448">
        <ele>215.0242863577</ele>
        <time>2022-02-01T14:03:24Z</time>
      </trkpt>
      <trkpt lat="43.574" lon="2.10438">
        <ele>215.3499666374</ele>
        <time>2022-02-01T14:03:32Z</time>
      </trkpt>
      <trkpt lat="43.57401" lon="2.10427">
        <ele>213.52039193526</ele>
        <time>2022-02-01T14:03:48Z</time>
      </trkpt>
      <trkpt lat="43.57402" lon="2.10416">
        <ele>212.00331975747</ele>
        <time>2022-02-01T14:03:54Z</time>
      </trkpt>
      <trkpt lat="43.57404" lon="2.10404">
        <ele>209.15478418479</ele>
        <time>2022-02-01T14:04:01Z</time>
      </trkpt>
      <trkpt lat="43.57408" lon="2.10394">
        <ele>206.96426211019</ele>
        <time>2022-02-01T14:04:09Z</time>
      </trkpt>
      <trkpt lat="43.57408" lon="2.10381">
        <ele>203.7294492779</ele>
        <time>2022-02-01T14:04:17Z</time>
      </trkpt>
      <trkpt lat="43.57409" lon="2.1037">
        <ele>203.54930542307</ele>
        <time>2022-02-01T14:04:24Z</time>
      </trkpt>
      <trkpt lat="43.5741" lon="2.10359">
        <ele>205.15750978638</ele>
        <time>2022-02-01T14:04:31Z</time>
      </trkpt>
      <trkpt lat="43.57413" lon="2.10348">
        <ele>205.7855041848</ele>
        <time>2022-02-01T14:04:38Z</time>
      </trkpt>
      <trkpt lat="43.57413" lon="2.10336">
        <ele>204.97705957067</ele>
        <time>2022-02-01T14:04:45Z</time>
      </trkpt>
      <trkpt lat="43.57415" lon="2.10325">
        <ele>205.41501960454</ele>
        <time>2022-02-01T14:04:53Z</time>
      </trkpt>
      <trkpt lat="43.57418" lon="2.10313">
        <ele>208.37616715014</ele>
        <time>2022-02-01T14:05:14Z</time>
      </trkpt>
      <trkpt lat="43.5742" lon="2.10301">
        <ele>208.93385304017</ele>
        <time>2022-02-01T14:05:21Z</time>
      </trkpt>
      <trkpt lat="43.57423" lon="2.1029">
        <ele>210.45191909736</ele>
        <time>2022-02-01T14:05:45Z</time>
      </trkpt>
      <trkpt lat="43.57422" lon="2.10278">
        <ele>209.75050874878</ele>
        <time>2022-02-01T14:05:54Z</time>
      </trkpt>
      <trkpt lat="43.57424" lon="2.10266">
        <ele>210.34079041578</ele>
        <time>2022-02-01T14:06:03Z</time>
      </trkpt>
      <trkpt lat="43.57426" lon="2.10256">
        <ele>212.52589791934</ele>
        <time>2022-02-01T14:06:10Z</time>
      </trkpt>
      <trkpt lat="43.57429" lon="2.10245">
        <ele>214.75552835224</ele>
        <time>2022-02-01T14:06:18Z</time>
      </trkpt>
      <trkpt lat="43.57429" lon="2.10232">
        <ele>217.11911175162</ele>
        <time>2022-02-01T14:06:26Z</time>
      </trkpt>
      <trkpt lat="43.57431" lon="2.1022">
        <ele>218.99361989633</ele>
        <time>2022-02-01T14:06:34Z</time>
      </trkpt>
      <trkpt lat="43.57433" lon="2.10208">
        <ele>218.82564257547</ele>
        <time>2022-02-01T14:06:41Z</time>
      </trkpt>
      <trkpt lat="43.57434" lon="2.10197">
        <ele>220.05661992639</ele>
        <time>2022-02-01T14:06:48Z</time>
      </trkpt>
      <trkpt lat="43.57437" lon="2.10187">
        <ele>216.24412146419</ele>
        <time>2022-02-01T14:06:54Z</time>
      </trkpt>
      <trkpt lat="43.57439" lon="2.10176">
        <ele>214.49442324024</ele>
        <time>2022-02-01T14:07:01Z</time>
      </trkpt>
      <trkpt lat="43.5744" lon="2.10165">
        <ele>213.41228681266</ele>
        <time>2022-02-01T14:07:09Z</time>
      </trkpt>
      <trkpt lat="43.57442" lon="2.10153">
        <ele>213.41986732885</ele>
        <time>2022-02-01T14:07:17Z</time>
      </trkpt>
      <trkpt lat="43.57442" lon="2.10142">
        <ele>214.25134851223</ele>
        <time>2022-02-01T14:07:24Z</time>
      </trkpt>
      <trkpt lat="43.57443" lon="2.1013">
        <ele>215.65182650111</ele>
        <time>2022-02-01T14:07:31Z</time>
      </trkpt>
      <trkpt lat="43.57447" lon="2.1012">
        <ele>216.749489128</ele>
        <time>2022-02-01T14:07:39Z</time>
      </trkpt>
      <trkpt lat="43.57449" lon="2.10109">
        <ele>215.93190124544</ele>
        <time>2022-02-01T14:07:46Z</time>
      </trkpt>
      <trkpt lat="43.57453" lon="2.10098">
        <ele>215.09623902377</ele>
        <time>2022-02-01T14:07:54Z</time>
      </trkpt>
      <trkpt lat="43.57454" lon="2.10086">
        <ele>215.01984296688</ele>
        <time>2022-02-01T14:08:03Z</time>
      </trkpt>
      <trkpt lat="43.57456" lon="2.10074">
        <ele>215.43572619131</ele>
        <time>2022-02-01T14:08:09Z</time>
      </trkpt>
      <trkpt lat="43.57457" lon="2.10062">
        <ele>214.28793594897</ele>
        <time>2022-02-01T14:08:15Z</time>
      </trkpt>
      <trkpt lat="43.57459" lon="2.10051">
        <ele>214.67478572952</ele>
        <time>2022-02-01T14:08:22Z</time>
      </trkpt>
      <trkpt lat="43.57461" lon="2.10039">
        <ele>215.53108276199</ele>
        <time>2022-02-01T14:08:29Z</time>
      </trkpt>
      <trkpt lat="43.57462" lon="2.10028">
        <ele>215.94994003748</ele>
        <time>2022-02-01T14:08:36Z</time>
      </trkpt>
      <trkpt lat="43.57463" lon="2.10016">
        <ele>216.460527107</ele>
        <time>2022-02-01T14:08:43Z</time>
      </trkpt>
      <trkpt lat="43.57465" lon="2.10005">
        <ele>217.17915460423</ele>
        <time>2022-02-01T14:08:51Z</time>
      </trkpt>
      <trkpt lat="43.57467" lon="2.09993">
        <ele>219.51326074284</ele>
        <time>2022-02-01T14:09:00Z</time>
      </trkpt>
      <trkpt lat="43.57469" lon="2.09982">
        <ele>220.9210787651</ele>
        <time>2022-02-01T14:09:08Z</time>
      </trkpt>
      <trkpt lat="43.5747" lon="2.0997">
        <ele>222.82993390487</ele>
        <time>2022-02-01T14:09:15Z</time>
      </trkpt>
      <trkpt lat="43.57471" lon="2.09958">
        <ele>225.25189625875</ele>
        <time>2022-02-01T14:09:23Z</time>
      </trkpt>
      <trkpt lat="43.57471" lon="2.09946">
        <ele>226.91972765993</ele>
        <time>2022-02-01T14:09:30Z</time>
      </trkpt>
      <trkpt lat="43.57473" lon="2.09935">
        <ele>229.7341592857</ele>
        <time>2022-02-01T14:09:38Z</time>
      </trkpt>
      <trkpt lat="43.57476" lon="2.09924">
        <ele>232.47497370082</ele>
        <time>2022-02-01T14:09:45Z</time>
      </trkpt>
      <trkpt lat="43.57476" lon="2.09911">
        <ele>233.7215102407</ele>
        <time>2022-02-01T14:09:51Z</time>
      </trkpt>
      <trkpt lat="43.57479" lon="2.09901">
        <ele>233.93309557798</ele>
        <time>2022-02-01T14:09:57Z</time>
      </trkpt>
      <trkpt lat="43.57482" lon="2.0989">
        <ele>234.80349250916</ele>
        <time>2022-02-01T14:10:04Z</time>
      </trkpt>
      <trkpt lat="43.57483" lon="2.09879">
        <ele>234.9569093553</ele>
        <time>2022-02-01T14:10:10Z</time>
      </trkpt>
      <trkpt lat="43.57485" lon="2.09868">
        <ele>234.72363266432</ele>
        <time>2022-02-01T14:10:16Z</time>
      </trkpt>
      <trkpt lat="43.57488" lon="2.09857">
        <ele>233.44118367727</ele>
        <time>2022-02-01T14:10:22Z</time>
      </trkpt>
      <trkpt lat="43.57492" lon="2.09846">
        <ele>230.74256273308</ele>
        <time>2022-02-01T14:10:30Z</time>
      </trkpt>
      <trkpt lat="43.57494" lon="2.09836">
        <ele>229.89697460844</ele>
        <time>2022-02-01T14:10:38Z</time>
      </trkpt>
      <trkpt lat="43.57502" lon="2.09832">
        <ele>230.13284622083</ele>
        <time>2022-02-01T14:12:14Z</time>
      </trkpt>
      <trkpt lat="43.57509" lon="2.09826">
        <ele>229.90147251817</ele>
        <time>2022-02-01T14:12:24Z</time>
      </trkpt>
      <trkpt lat="43.57517" lon="2.09821">
        <ele>230.78188862857</ele>
        <time>2022-02-01T14:12:36Z</time>
      </trkpt>
      <trkpt lat="43.57525" lon="2.09817">
        <ele>229.34301179729</ele>
        <time>2022-02-01T14:12:49Z</time>
      </trkpt>
      <trkpt lat="43.57532" lon="2.09811">
        <ele>231.48622343361</ele>
        <time>2022-02-01T14:13:00Z</time>
      </trkpt>
      <trkpt lat="43.5754" lon="2.09808">
        <ele>232.79002359065</ele>
        <time>2022-02-01T14:13:11Z</time>
      </trkpt>
      <trkpt lat="43.57549" lon="2.09806">
        <ele>232.40794667657</ele>
        <time>2022-02-01T14:13:29Z</time>
      </trkpt>
      <trkpt lat="43.57556" lon="2.0981">
        <ele>230.93196122663</ele>
        <time>2022-02-01T14:13:45Z</time>
      </trkpt>
      <trkpt lat="43.57563" lon="2.09818">
        <ele>228.7144090104</ele>
        <time>2022-02-01T14:13:56Z</time>
      </trkpt>
      <trkpt lat="43.57571" lon="2.09819">
        <ele>228.93517615495</ele>
        <time>2022-02-01T14:14:20Z</time>
      </trkpt>
      <trkpt lat="43.57579" lon="2.09825">
        <ele>227.97413121162</ele>
        <time>2022-02-01T14:14:28Z</time>
      </trkpt>
      <trkpt lat="43.57584" lon="2.09834">
        <ele>227.42848797566</ele>
        <time>2022-02-01T14:14:39Z</time>
      </trkpt>
      <trkpt lat="43.57587" lon="2.09845">
        <ele>227.32265280339</ele>
        <time>2022-02-01T14:14:57Z</time>
      </trkpt>
      <trkpt lat="43.57588" lon="2.09856">
        <ele>225.85646632635</ele>
        <time>2022-02-01T14:15:05Z</time>
      </trkpt>
      <trkpt lat="43.57594" lon="2.09866">
        <ele>224.13910106053</ele>
        <time>2022-02-01T14:15:22Z</time>
      </trkpt>
      <trkpt lat="43.57598" lon="2.09875">
        <ele>223.77209914532</ele>
        <time>2022-02-01T14:15:30Z</time>
      </trkpt>
      <trkpt lat="43.57601" lon="2.09886">
        <ele>222.39348345186</ele>
        <time>2022-02-01T14:15:41Z</time>
      </trkpt>
      <trkpt lat="43.57601" lon="2.09897">
        <ele>221.26156624887</ele>
        <time>2022-02-01T14:15:56Z</time>
      </trkpt>
      <trkpt lat="43.57602" lon="2.09909">
        <ele>220.93588647286</ele>
        <time>2022-02-01T14:16:07Z</time>
      </trkpt>
      <trkpt lat="43.57602" lon="2.09921">
        <ele>220.28241119686</ele>
        <time>2022-02-01T14:16:15Z</time>
      </trkpt>
      <trkpt lat="43.57604" lon="2.09932">
        <ele>218.20994022664</ele>
        <time>2022-02-01T14:16:24Z</time>
      </trkpt>
      <trkpt lat="43.57607" lon="2.09943">
        <ele>214.80299957072</ele>
        <time>2022-02-01T14:16:34Z</time>
      </trkpt>
      <trkpt lat="43.57609" lon="2.09954">
        <ele>214.85030905778</ele>
        <time>2022-02-01T14:17:01Z</time>
      </trkpt>
      <trkpt lat="43.57609" lon="2.09967">
        <ele>216.27635849645</ele>
        <time>2022-02-01T14:17:33Z</time>
      </trkpt>
      <trkpt lat="43.57614" lon="2.09975">
        <ele>216.21621106648</ele>
        <time>2022-02-01T14:17:48Z</time>
      </trkpt>
      <trkpt lat="43.57621" lon="2.09982">
        <ele>216.31951222525</ele>
        <time>2022-02-01T14:18:05Z</time>
      </trkpt>
      <trkpt lat="43.57626" lon="2.0999">
        <ele>216.26195866879</ele>
        <time>2022-02-01T14:18:31Z</time>
      </trkpt>
      <trkpt lat="43.57625" lon="2.10001">
        <ele>212.5314564019</ele>
        <time>2022-02-01T14:18:38Z</time>
      </trkpt>
      <trkpt lat="43.57623" lon="2.10012">
        <ele>211.93012263032</ele>
        <time>2022-02-01T14:18:42Z</time>
      </trkpt>
      <trkpt lat="43.57626" lon="2.10023">
        <ele>208.21198443483</ele>
        <time>2022-02-01T14:19:00Z</time>
      </trkpt>
      <trkpt lat="43.57631" lon="2.10032">
        <ele>208.11626966687</ele>
        <time>2022-02-01T14:19:25Z</time>
      </trkpt>
      <trkpt lat="43.57638" lon="2.10039">
        <ele>206.15405683328</ele>
        <time>2022-02-01T14:19:34Z</time>
      </trkpt>
      <trkpt lat="43.57642" lon="2.1005">
        <ele>204.68409066343</ele>
        <time>2022-02-01T14:19:59Z</time>
      </trkpt>
      <trkpt lat="43.57647" lon="2.10059">
        <ele>205.01293430133</ele>
        <time>2022-02-01T14:20:12Z</time>
      </trkpt>
      <trkpt lat="43.57654" lon="2.10066">
        <ele>204.08799680906</ele>
        <time>2022-02-01T14:20:20Z</time>
      </trkpt>
      <trkpt lat="43.57657" lon="2.10077">
        <ele>201.45603265605</ele>
        <time>2022-02-01T14:20:31Z</time>
      </trkpt>
      <trkpt lat="43.5766" lon="2.10088">
        <ele>199.53573771165</ele>
        <time>2022-02-01T14:20:45Z</time>
      </trkpt>
      <trkpt lat="43.57663" lon="2.10099">
        <ele>196.27342485252</ele>
        <time>2022-02-01T14:20:52Z</time>
      </trkpt>
      <trkpt lat="43.57665" lon="2.10111">
        <ele>196.05656644994</ele>
        <time>2022-02-01T14:21:04Z</time>
      </trkpt>
      <trkpt lat="43.57669" lon="2.1012">
        <ele>195.91729210746</ele>
        <time>2022-02-01T14:21:13Z</time>
      </trkpt>
      <trkpt lat="43.57675" lon="2.10129">
        <ele>195.98044714042</ele>
        <time>2022-02-01T14:21:26Z</time>
      </trkpt>
      <trkpt lat="43.57679" lon="2.10139">
        <ele>195.92818664744</ele>
        <time>2022-02-01T14:21:37Z</time>
      </trkpt>
      <trkpt lat="43.5768" lon="2.1015">
        <ele>193.27770059071</ele>
        <time>2022-02-01T14:22:05Z</time>
      </trkpt>
      <trkpt lat="43.57685" lon="2.10161">
        <ele>193.40802787442</ele>
        <time>2022-02-01T14:22:24Z</time>
      </trkpt>
      <trkpt lat="43.57689" lon="2.10171">
        <ele>193.66440157622</ele>
        <time>2022-02-01T14:22:31Z</time>
      </trkpt>
      <trkpt lat="43.57695" lon="2.10179">
        <ele>191.49297500254</ele>
        <time>2022-02-01T14:22:48Z</time>
      </trkpt>
      <trkpt lat="43.57697" lon="2.10189">
        <ele>189.26367162268</ele>
        <time>2022-02-01T14:22:55Z</time>
      </trkpt>
      <trkpt lat="43.57698" lon="2.10201">
        <ele>188.77556636385</ele>
        <time>2022-02-01T14:23:02Z</time>
      </trkpt>
      <trkpt lat="43.57698" lon="2.10212">
        <ele>186.04120792414</ele>
        <time>2022-02-01T14:23:09Z</time>
      </trkpt>
      <trkpt lat="43.577" lon="2.10223">
        <ele>184.38759574546</ele>
        <time>2022-02-01T14:23:16Z</time>
      </trkpt>
      <trkpt lat="43.57703" lon="2.10235">
        <ele>182.53644907717</ele>
        <time>2022-02-01T14:23:27Z</time>
      </trkpt>
      <trkpt lat="43.57696" lon="2.10242">
        <ele>180.84098054309</ele>
        <time>2022-02-01T14:23:41Z</time>
      </trkpt>
      <trkpt lat="43.57689" lon="2.10248">
        <ele>180.49233392328</ele>
        <time>2022-02-01T14:23:51Z</time>
      </trkpt>
      <trkpt lat="43.57683" lon="2.10257">
        <ele>181.70442702827</ele>
        <time>2022-02-01T14:24:19Z</time>
      </trkpt>
      <trkpt lat="43.57678" lon="2.10267">
        <ele>184.03682542397</ele>
        <time>2022-02-01T14:24:40Z</time>
      </trkpt>
      <trkpt lat="43.57677" lon="2.10279">
        <ele>184.78280979748</ele>
        <time>2022-02-01T14:24:57Z</time>
      </trkpt>
      <trkpt lat="43.57672" lon="2.10289">
        <ele>181.60303852643</ele>
        <time>2022-02-01T14:26:04Z</time>
      </trkpt>
      <trkpt lat="43.57681" lon="2.10291">
        <ele>178.07259972873</ele>
        <time>2022-02-01T14:26:39Z</time>
      </trkpt>
      <trkpt lat="43.57687" lon="2.10296">
        <ele>178.3006228662</ele>
        <time>2022-02-01T14:26:47Z</time>
      </trkpt>
      <trkpt lat="43.57696" lon="2.103">
        <ele>178.49134071301</ele>
        <time>2022-02-01T14:27:02Z</time>
      </trkpt>
      <trkpt lat="43.57704" lon="2.10306">
        <ele>179.2297249703</ele>
        <time>2022-02-01T14:27:08Z</time>
      </trkpt>
      <trkpt lat="43.57712" lon="2.10309">
        <ele>180.44238566204</ele>
        <time>2022-02-01T14:27:14Z</time>
      </trkpt>
      <trkpt lat="43.5772" lon="2.10312">
        <ele>180.88389883838</ele>
        <time>2022-02-01T14:27:21Z</time>
      </trkpt>
      <trkpt lat="43.57728" lon="2.10316">
        <ele>182.51336868828</ele>
        <time>2022-02-01T14:27:31Z</time>
      </trkpt>
      <trkpt lat="43.57736" lon="2.10321">
        <ele>182.93287984669</ele>
        <time>2022-02-01T14:27:42Z</time>
      </trkpt>
      <trkpt lat="43.57743" lon="2.10325">
        <ele>182.17479468008</ele>
        <time>2022-02-01T14:27:49Z</time>
      </trkpt>
      <trkpt lat="43.57752" lon="2.10329">
        <ele>181.95720862859</ele>
        <time>2022-02-01T14:27:59Z</time>
      </trkpt>
      <trkpt lat="43.5776" lon="2.10332">
        <ele>182.1932763128</ele>
        <time>2022-02-01T14:28:14Z</time>
      </trkpt>
      <trkpt lat="43.57768" lon="2.10336">
        <ele>182.65175571992</ele>
        <time>2022-02-01T14:28:27Z</time>
      </trkpt>
      <trkpt lat="43.57776" lon="2.1034">
        <ele>185.05067997859</ele>
        <time>2022-02-01T14:28:39Z</time>
      </trkpt>
      <trkpt lat="43.57783" lon="2.10343">
        <ele>186.41817323867</ele>
        <time>2022-02-01T14:28:46Z</time>
      </trkpt>
      <trkpt lat="43.57791" lon="2.10347">
        <ele>187.82878417248</ele>
        <time>2022-02-01T14:28:53Z</time>
      </trkpt>
      <trkpt lat="43.57799" lon="2.10353">
        <ele>187.92634165657</ele>
        <time>2022-02-01T14:29:11Z</time>
      </trkpt>
      <trkpt lat="43.57804" lon="2.10363">
        <ele>188.12305968751</ele>
        <time>2022-02-01T14:29:40Z</time>
      </trkpt>
      <trkpt lat="43.57803" lon="2.10374">
        <ele>188.858905571</ele>
        <time>2022-02-01T14:29:46Z</time>
      </trkpt>
      <trkpt lat="43.57802" lon="2.10386">
        <ele>189.82075184638</ele>
        <time>2022-02-01T14:29:53Z</time>
      </trkpt>
      <trkpt lat="43.57798" lon="2.10395">
        <ele>191.72172731079</ele>
        <time>2022-02-01T14:30:38Z</time>
      </trkpt>
      <trkpt lat="43.57798" lon="2.10406">
        <ele>192.97553861528</ele>
        <time>2022-02-01T14:30:43Z</time>
      </trkpt>
      <trkpt lat="43.57798" lon="2.10417">
        <ele>192.85832830364</ele>
        <time>2022-02-01T14:30:49Z</time>
      </trkpt>
      <trkpt lat="43.57797" lon="2.10429">
        <ele>190.23929672293</ele>
        <time>2022-02-01T14:30:56Z</time>
      </trkpt>
      <trkpt lat="43.57795" lon="2.1044">
        <ele>187.93680933451</ele>
        <time>2022-02-01T14:31:03Z</time>
      </trkpt>
      <trkpt lat="43.57794" lon="2.10452">
        <ele>186.9264037989</ele>
        <time>2022-02-01T14:31:10Z</time>
      </trkpt>
      <trkpt lat="43.57793" lon="2.10464">
        <ele>186.50298691148</ele>
        <time>2022-02-01T14:31:18Z</time>
      </trkpt>
      <trkpt lat="43.57792" lon="2.10475">
        <ele>185.73568128647</ele>
        <time>2022-02-01T14:31:25Z</time>
      </trkpt>
      <trkpt lat="43.57791" lon="2.10487">
        <ele>185.57597587168</ele>
        <time>2022-02-01T14:31:32Z</time>
      </trkpt>
      <trkpt lat="43.5779" lon="2.105">
        <ele>185.25176187607</ele>
        <time>2022-02-01T14:31:38Z</time>
      </trkpt>
      <trkpt lat="43.57788" lon="2.1051">
        <ele>185.0627640724</ele>
        <time>2022-02-01T14:31:44Z</time>
      </trkpt>
      <trkpt lat="43.57788" lon="2.10522">
        <ele>185.80295606575</ele>
        <time>2022-02-01T14:31:52Z</time>
      </trkpt>
      <trkpt lat="43.57788" lon="2.10533">
        <ele>187.15197049093</ele>
        <time>2022-02-01T14:31:59Z</time>
      </trkpt>
      <trkpt lat="43.57788" lon="2.10546">
        <ele>186.97022231132</ele>
        <time>2022-02-01T14:32:07Z</time>
      </trkpt>
      <trkpt lat="43.57788" lon="2.10557">
        <ele>188.26095068081</ele>
        <time>2022-02-01T14:32:16Z</time>
      </trkpt>
      <trkpt lat="43.57788" lon="2.10569">
        <ele>188.24590058635</ele>
        <time>2022-02-01T14:32:23Z</time>
      </trkpt>
      <trkpt lat="43.57788" lon="2.10581">
        <ele>186.39474007598</ele>
        <time>2022-02-01T14:32:30Z</time>
      </trkpt>
      <trkpt lat="43.57788" lon="2.10592">
        <ele>184.86556847509</ele>
        <time>2022-02-01T14:32:36Z</time>
      </trkpt>
      <trkpt lat="43.5779" lon="2.10603">
        <ele>185.1030843932</ele>
        <time>2022-02-01T14:32:42Z</time>
      </trkpt>
      <trkpt lat="43.57791" lon="2.10615">
        <ele>183.64184314939</ele>
        <time>2022-02-01T14:32:48Z</time>
      </trkpt>
      <trkpt lat="43.5779" lon="2.10627">
        <ele>183.11438312184</ele>
        <time>2022-02-01T14:32:55Z</time>
      </trkpt>
      <trkpt lat="43.57791" lon="2.10638">
        <ele>182.96451142738</ele>
        <time>2022-02-01T14:33:02Z</time>
      </trkpt>
      <trkpt lat="43.57791" lon="2.1065">
        <ele>180.10939263315</ele>
        <time>2022-02-01T14:33:11Z</time>
      </trkpt>
      <trkpt lat="43.57786" lon="2.10659">
        <ele>180.30061703992</ele>
        <time>2022-02-01T14:33:19Z</time>
      </trkpt>
      <trkpt lat="43.57779" lon="2.10665">
        <ele>180.81565155827</ele>
        <time>2022-02-01T14:33:26Z</time>
      </trkpt>
      <trkpt lat="43.57773" lon="2.10671">
        <ele>180.43981145631</ele>
        <time>2022-02-01T14:33:32Z</time>
      </trkpt>
      <trkpt lat="43.57769" lon="2.10681">
        <ele>180.0846374541</ele>
        <time>2022-02-01T14:33:39Z</time>
      </trkpt>
      <trkpt lat="43.57767" lon="2.10693">
        <ele>181.83934334973</ele>
        <time>2022-02-01T14:33:48Z</time>
      </trkpt>
      <trkpt lat="43.57764" lon="2.10703">
        <ele>181.99317834565</ele>
        <time>2022-02-01T14:33:55Z</time>
      </trkpt>
      <trkpt lat="43.57761" lon="2.10714">
        <ele>183.47903582235</ele>
        <time>2022-02-01T14:34:02Z</time>
      </trkpt>
      <trkpt lat="43.57757" lon="2.10725">
        <ele>184.29202623308</ele>
        <time>2022-02-01T14:34:10Z</time>
      </trkpt>
      <trkpt lat="43.57754" lon="2.10736">
        <ele>185.30866126606</ele>
        <time>2022-02-01T14:34:18Z</time>
      </trkpt>
      <trkpt lat="43.57749" lon="2.10745">
        <ele>185.3065708665</ele>
        <time>2022-02-01T14:34:25Z</time>
      </trkpt>
      <trkpt lat="43.57743" lon="2.10753">
        <ele>184.85831730652</ele>
        <time>2022-02-01T14:34:32Z</time>
      </trkpt>
      <trkpt lat="43.57738" lon="2.10762">
        <ele>184.28291241702</ele>
        <time>2022-02-01T14:34:40Z</time>
      </trkpt>
      <trkpt lat="43.57734" lon="2.10773">
        <ele>185.55479860961</ele>
        <time>2022-02-01T14:34:48Z</time>
      </trkpt>
      <trkpt lat="43.57728" lon="2.1078">
        <ele>185.62682447453</ele>
        <time>2022-02-01T14:34:55Z</time>
      </trkpt>
      <trkpt lat="43.5772" lon="2.10786">
        <ele>186.66336622877</ele>
        <time>2022-02-01T14:35:01Z</time>
      </trkpt>
      <trkpt lat="43.57712" lon="2.10788">
        <ele>186.1876204946</ele>
        <time>2022-02-01T14:35:09Z</time>
      </trkpt>
      <trkpt lat="43.57705" lon="2.10794">
        <ele>186.37918107116</ele>
        <time>2022-02-01T14:35:17Z</time>
      </trkpt>
      <trkpt lat="43.57704" lon="2.10806">
        <ele>186.39170152662</ele>
        <time>2022-02-01T14:35:25Z</time>
      </trkpt>
      <trkpt lat="43.57703" lon="2.10818">
        <ele>185.14113085263</ele>
        <time>2022-02-01T14:35:35Z</time>
      </trkpt>
      <trkpt lat="43.57701" lon="2.10829">
        <ele>184.9840897568</ele>
        <time>2022-02-01T14:35:46Z</time>
      </trkpt>
      <trkpt lat="43.57698" lon="2.10841">
        <ele>184.39056152078</ele>
        <time>2022-02-01T14:35:56Z</time>
      </trkpt>
      <trkpt lat="43.57693" lon="2.10851">
        <ele>183.96302700762</ele>
        <time>2022-02-01T14:36:04Z</time>
      </trkpt>
      <trkpt lat="43.5769" lon="2.10861">
        <ele>182.99939983522</ele>
        <time>2022-02-01T14:36:11Z</time>
      </trkpt>
      <trkpt lat="43.57688" lon="2.10873">
        <ele>182.21658720321</ele>
        <time>2022-02-01T14:36:18Z</time>
      </trkpt>
      <trkpt lat="43.57688" lon="2.10884">
        <ele>182.1362907209</ele>
        <time>2022-02-01T14:36:26Z</time>
      </trkpt>
      <trkpt lat="43.57686" lon="2.10895">
        <ele>183.55584139624</ele>
        <time>2022-02-01T14:36:34Z</time>
      </trkpt>
      <trkpt lat="43.57685" lon="2.10907">
        <ele>182.93586942631</ele>
        <time>2022-02-01T14:36:43Z</time>
      </trkpt>
      <trkpt lat="43.57684" lon="2.10919">
        <ele>181.97804314452</ele>
        <time>2022-02-01T14:36:51Z</time>
      </trkpt>
      <trkpt lat="43.57683" lon="2.10931">
        <ele>180.34448962475</ele>
        <time>2022-02-01T14:36:59Z</time>
      </trkpt>
      <trkpt lat="43.57683" lon="2.10943">
        <ele>178.66843870685</ele>
        <time>2022-02-01T14:37:07Z</time>
      </trkpt>
      <trkpt lat="43.57685" lon="2.10954">
        <ele>178.44630700607</ele>
        <time>2022-02-01T14:37:16Z</time>
      </trkpt>
      <trkpt lat="43.57683" lon="2.10965">
        <ele>177.38922499774</ele>
        <time>2022-02-01T14:37:24Z</time>
      </trkpt>
      <trkpt lat="43.5768" lon="2.10976">
        <ele>177.32555024397</ele>
        <time>2022-02-01T14:37:31Z</time>
      </trkpt>
      <trkpt lat="43.57678" lon="2.10987">
        <ele>178.18209700024</ele>
        <time>2022-02-01T14:37:40Z</time>
      </trkpt>
      <trkpt lat="43.57676" lon="2.10998">
        <ele>177.53979330092</ele>
        <time>2022-02-01T14:37:49Z</time>
      </trkpt>
      <trkpt lat="43.57676" lon="2.11009">
        <ele>176.14213990405</ele>
        <time>2022-02-01T14:37:58Z</time>
      </trkpt>
      <trkpt lat="43.57675" lon="2.1102">
        <ele>176.29786892926</ele>
        <time>2022-02-01T14:38:07Z</time>
      </trkpt>
      <trkpt lat="43.57673" lon="2.1103">
        <ele>175.85755113191</ele>
        <time>2022-02-01T14:38:14Z</time>
      </trkpt>
      <trkpt lat="43.57672" lon="2.11042">
        <ele>174.91916556519</ele>
        <time>2022-02-01T14:38:21Z</time>
      </trkpt>
      <trkpt lat="43.57669" lon="2.11052">
        <ele>173.8927145958</ele>
        <time>2022-02-01T14:38:29Z</time>
      </trkpt>
      <trkpt lat="43.57666" lon="2.11063">
        <ele>172.60253429254</ele>
        <time>2022-02-01T14:38:39Z</time>
      </trkpt>
      <trkpt lat="43.57663" lon="2.11074">
        <ele>172.37706271993</ele>
        <time>2022-02-01T14:38:48Z</time>
      </trkpt>
      <trkpt lat="43.57656" lon="2.11081">
        <ele>170.94137381237</ele>
        <time>2022-02-01T14:38:56Z</time>
      </trkpt>
      <trkpt lat="43.57651" lon="2.1109">
        <ele>169.28027265544</ele>
        <time>2022-02-01T14:39:03Z</time>
      </trkpt>
      <trkpt lat="43.5765" lon="2.11101">
        <ele>169.61010141873</ele>
        <time>2022-02-01T14:39:10Z</time>
      </trkpt>
      <trkpt lat="43.57647" lon="2.11112">
        <ele>171.42281110343</ele>
        <time>2022-02-01T14:39:18Z</time>
      </trkpt>
      <trkpt lat="43.57643" lon="2.11123">
        <ele>174.30944754875</ele>
        <time>2022-02-01T14:39:25Z</time>
      </trkpt>
      <trkpt lat="43.57642" lon="2.11135">
        <ele>177.14071812477</ele>
        <time>2022-02-01T14:39:33Z</time>
      </trkpt>
      <trkpt lat="43.57643" lon="2.11145">
        <ele>175.61687080961</ele>
        <time>2022-02-01T14:39:40Z</time>
      </trkpt>
      <trkpt lat="43.57641" lon="2.11157">
        <ele>175.99755145523</ele>
        <time>2022-02-01T14:39:48Z</time>
      </trkpt>
      <trkpt lat="43.57639" lon="2.11169">
        <ele>175.78583764902</ele>
        <time>2022-02-01T14:39:57Z</time>
      </trkpt>
      <trkpt lat="43.57636" lon="2.1118">
        <ele>176.78160932118</ele>
        <time>2022-02-01T14:40:07Z</time>
      </trkpt>
      <trkpt lat="43.57635" lon="2.11192">
        <ele>174.96551543016</ele>
        <time>2022-02-01T14:40:18Z</time>
      </trkpt>
      <trkpt lat="43.57631" lon="2.11203">
        <ele>174.01441186873</ele>
        <time>2022-02-01T14:40:28Z</time>
      </trkpt>
      <trkpt lat="43.5763" lon="2.11215">
        <ele>173.85196226041</ele>
        <time>2022-02-01T14:40:36Z</time>
      </trkpt>
      <trkpt lat="43.5763" lon="2.11227">
        <ele>173.32784517342</ele>
        <time>2022-02-01T14:40:44Z</time>
      </trkpt>
      <trkpt lat="43.57631" lon="2.11239">
        <ele>172.80663507588</ele>
        <time>2022-02-01T14:40:52Z</time>
      </trkpt>
      <trkpt lat="43.57636" lon="2.11249">
        <ele>171.27484199212</ele>
        <time>2022-02-01T14:41:09Z</time>
      </trkpt>
      <trkpt lat="43.57643" lon="2.11248">
        <ele>171.82038504924</ele>
        <time>2022-02-01T14:41:38Z</time>
      </trkpt>
      <trkpt lat="43.57644" lon="2.1126">
        <ele>171.55618406668</ele>
        <time>2022-02-01T14:41:45Z</time>
      </trkpt>
      <trkpt lat="43.5765" lon="2.11266">
        <ele>177.31715018078</ele>
        <time>2022-02-01T14:42:05Z</time>
      </trkpt>
      <trkpt lat="43.57658" lon="2.1127">
        <ele>179.20458092513</ele>
        <time>2022-02-01T14:42:12Z</time>
      </trkpt>
      <trkpt lat="43.57665" lon="2.11268">
        <ele>181.85218001901</ele>
        <time>2022-02-01T14:42:19Z</time>
      </trkpt>
      <trkpt lat="43.57673" lon="2.11274">
        <ele>183.51712635565</ele>
        <time>2022-02-01T14:42:24Z</time>
      </trkpt>
      <trkpt lat="43.57677" lon="2.11284">
        <ele>185.3135379551</ele>
        <time>2022-02-01T14:42:30Z</time>
      </trkpt>
      <trkpt lat="43.57678" lon="2.11296">
        <ele>184.20101870948</ele>
        <time>2022-02-01T14:42:36Z</time>
      </trkpt>
      <trkpt lat="43.57676" lon="2.11308">
        <ele>181.5100011176</ele>
        <time>2022-02-01T14:42:42Z</time>
      </trkpt>
      <trkpt lat="43.57677" lon="2.11319">
        <ele>180.8184470302</ele>
        <time>2022-02-01T14:42:48Z</time>
      </trkpt>
      <trkpt lat="43.5768" lon="2.11331">
        <ele>179.44615622617</ele>
        <time>2022-02-01T14:42:56Z</time>
      </trkpt>
      <trkpt lat="43.57682" lon="2.11342">
        <ele>177.31040350235</ele>
        <time>2022-02-01T14:43:03Z</time>
      </trkpt>
      <trkpt lat="43.57682" lon="2.11354">
        <ele>175.91685721347</ele>
        <time>2022-02-01T14:43:10Z</time>
      </trkpt>
      <trkpt lat="43.57684" lon="2.11365">
        <ele>174.10843149493</ele>
        <time>2022-02-01T14:43:17Z</time>
      </trkpt>
      <trkpt lat="43.57688" lon="2.11376">
        <ele>172.15527683529</ele>
        <time>2022-02-01T14:43:26Z</time>
      </trkpt>
      <trkpt lat="43.5769" lon="2.11386">
        <ele>170.85879993801</ele>
        <time>2022-02-01T14:43:33Z</time>
      </trkpt>
      <trkpt lat="43.57693" lon="2.11397">
        <ele>170.88686358623</ele>
        <time>2022-02-01T14:43:40Z</time>
      </trkpt>
      <trkpt lat="43.57695" lon="2.11409">
        <ele>169.15013335114</ele>
        <time>2022-02-01T14:43:47Z</time>
      </trkpt>
      <trkpt lat="43.57694" lon="2.1142">
        <ele>167.75930310946</ele>
        <time>2022-02-01T14:43:54Z</time>
      </trkpt>
      <trkpt lat="43.57697" lon="2.1143">
        <ele>167.19207986173</ele>
        <time>2022-02-01T14:44:00Z</time>
      </trkpt>
      <trkpt lat="43.57702" lon="2.11441">
        <ele>168.47705114089</ele>
        <time>2022-02-01T14:44:05Z</time>
      </trkpt>
      <trkpt lat="43.57699" lon="2.11452">
        <ele>168.25526918291</ele>
        <time>2022-02-01T14:44:14Z</time>
      </trkpt>
      <trkpt lat="43.57691" lon="2.11455">
        <ele>167.79298593091</ele>
        <time>2022-02-01T14:44:19Z</time>
      </trkpt>
      <trkpt lat="43.57683" lon="2.11458">
        <ele>167.93482316338</ele>
        <time>2022-02-01T14:44:25Z</time>
      </trkpt>
      <trkpt lat="43.57675" lon="2.1146">
        <ele>167.05024626744</ele>
        <time>2022-02-01T14:44:33Z</time>
      </trkpt>
      <trkpt lat="43.57666" lon="2.11462">
        <ele>166.57614389536</ele>
        <time>2022-02-01T14:44:41Z</time>
      </trkpt>
      <trkpt lat="43.57658" lon="2.11466">
        <ele>166.04696352356</ele>
        <time>2022-02-01T14:44:49Z</time>
      </trkpt>
      <trkpt lat="43.5765" lon="2.11471">
        <ele>166.68977658326</ele>
        <time>2022-02-01T14:44:56Z</time>
      </trkpt>
      <trkpt lat="43.57644" lon="2.11478">
        <ele>167.46593774102</ele>
        <time>2022-02-01T14:45:02Z</time>
      </trkpt>
      <trkpt lat="43.57638" lon="2.11485">
        <ele>168.10123077939</ele>
        <time>2022-02-01T14:45:08Z</time>
      </trkpt>
      <trkpt lat="43.57635" lon="2.11495">
        <ele>168.5532435265</ele>
        <time>2022-02-01T14:45:16Z</time>
      </trkpt>
      <trkpt lat="43.57633" lon="2.11506">
        <ele>168.12629043362</ele>
        <time>2022-02-01T14:45:23Z</time>
      </trkpt>
      <trkpt lat="43.57635" lon="2.11517">
        <ele>168.56473256769</ele>
        <time>2022-02-01T14:45:32Z</time>
      </trkpt>
      <trkpt lat="43.57638" lon="2.11529">
        <ele>166.54552722564</ele>
        <time>2022-02-01T14:45:41Z</time>
      </trkpt>
      <trkpt lat="43.5764" lon="2.1154">
        <ele>165.44472495098</ele>
        <time>2022-02-01T14:45:48Z</time>
      </trkpt>
      <trkpt lat="43.57642" lon="2.11551">
        <ele>165.01139231064</ele>
        <time>2022-02-01T14:45:55Z</time>
      </trkpt>
      <trkpt lat="43.57643" lon="2.11562">
        <ele>164.28791480949</ele>
        <time>2022-02-01T14:46:02Z</time>
      </trkpt>
      <trkpt lat="43.57644" lon="2.11573">
        <ele>163.15144970397</ele>
        <time>2022-02-01T14:46:10Z</time>
      </trkpt>
      <trkpt lat="43.57644" lon="2.11585">
        <ele>163.33669975308</ele>
        <time>2022-02-01T14:46:16Z</time>
      </trkpt>
      <trkpt lat="43.57642" lon="2.11596">
        <ele>163.51066558191</ele>
        <time>2022-02-01T14:46:23Z</time>
      </trkpt>
      <trkpt lat="43.5764" lon="2.11608">
        <ele>162.53087203565</ele>
        <time>2022-02-01T14:46:31Z</time>
      </trkpt>
      <trkpt lat="43.57638" lon="2.11619">
        <ele>162.46007503992</ele>
        <time>2022-02-01T14:46:40Z</time>
      </trkpt>
      <trkpt lat="43.57635" lon="2.1163">
        <ele>162.09176783648</ele>
        <time>2022-02-01T14:46:47Z</time>
      </trkpt>
      <trkpt lat="43.57632" lon="2.11641">
        <ele>162.30124211403</ele>
        <time>2022-02-01T14:46:54Z</time>
      </trkpt>
      <trkpt lat="43.5763" lon="2.11652">
        <ele>161.91323786222</ele>
        <time>2022-02-01T14:47:02Z</time>
      </trkpt>
      <trkpt lat="43.57629" lon="2.11664">
        <ele>162.74835953789</ele>
        <time>2022-02-01T14:47:10Z</time>
      </trkpt>
      <trkpt lat="43.57627" lon="2.11674">
        <ele>162.86152346774</ele>
        <time>2022-02-01T14:47:18Z</time>
      </trkpt>
      <trkpt lat="43.57624" lon="2.11685">
        <ele>163.65111894642</ele>
        <time>2022-02-01T14:47:25Z</time>
      </trkpt>
      <trkpt lat="43.57621" lon="2.11695">
        <ele>162.48593039644</ele>
        <time>2022-02-01T14:47:33Z</time>
      </trkpt>
      <trkpt lat="43.57618" lon="2.11706">
        <ele>163.13214415771</ele>
        <time>2022-02-01T14:47:41Z</time>
      </trkpt>
      <trkpt lat="43.57615" lon="2.11717">
        <ele>163.45749430307</ele>
        <time>2022-02-01T14:47:49Z</time>
      </trkpt>
      <trkpt lat="43.57612" lon="2.11729">
        <ele>163.40695182708</ele>
        <time>2022-02-01T14:47:57Z</time>
      </trkpt>
      <trkpt lat="43.5761" lon="2.1174">
        <ele>163.69772173737</ele>
        <time>2022-02-01T14:48:05Z</time>
      </trkpt>
      <trkpt lat="43.57607" lon="2.11751">
        <ele>164.00871404864</ele>
        <time>2022-02-01T14:48:14Z</time>
      </trkpt>
      <trkpt lat="43.57605" lon="2.11763">
        <ele>163.96135110457</ele>
        <time>2022-02-01T14:48:23Z</time>
      </trkpt>
      <trkpt lat="43.57603" lon="2.11774">
        <ele>164.49341086581</ele>
        <time>2022-02-01T14:48:31Z</time>
      </trkpt>
      <trkpt lat="43.57601" lon="2.11785">
        <ele>164.77304332371</ele>
        <time>2022-02-01T14:48:38Z</time>
      </trkpt>
      <trkpt lat="43.576" lon="2.11796">
        <ele>164.63259151339</ele>
        <time>2022-02-01T14:48:44Z</time>
      </trkpt>
      <trkpt lat="43.576" lon="2.11808">
        <ele>163.19511345303</ele>
        <time>2022-02-01T14:48:52Z</time>
      </trkpt>
      <trkpt lat="43.57599" lon="2.1182">
        <ele>160.31042430201</ele>
        <time>2022-02-01T14:49:00Z</time>
      </trkpt>
      <trkpt lat="43.57599" lon="2.11831">
        <ele>160.74463916436</ele>
        <time>2022-02-01T14:49:07Z</time>
      </trkpt>
      <trkpt lat="43.57602" lon="2.11842">
        <ele>162.11783380305</ele>
        <time>2022-02-01T14:49:14Z</time>
      </trkpt>
      <trkpt lat="43.57602" lon="2.11852">
        <ele>162.78680730777</ele>
        <time>2022-02-01T14:49:21Z</time>
      </trkpt>
      <trkpt lat="43.57602" lon="2.11863">
        <ele>161.84530474029</ele>
        <time>2022-02-01T14:49:28Z</time>
      </trkpt>
      <trkpt lat="43.57603" lon="2.11875">
        <ele>160.57456442074</ele>
        <time>2022-02-01T14:49:35Z</time>
      </trkpt>
      <trkpt lat="43.57603" lon="2.11886">
        <ele>160.05503949119</ele>
        <time>2022-02-01T14:49:42Z</time>
      </trkpt>
      <trkpt lat="43.57602" lon="2.11897">
        <ele>159.16738347873</ele>
        <time>2022-02-01T14:49:50Z</time>
      </trkpt>
      <trkpt lat="43.57601" lon="2.11909">
        <ele>158.91659563735</ele>
        <time>2022-02-01T14:49:57Z</time>
      </trkpt>
      <trkpt lat="43.57601" lon="2.1192">
        <ele>158.94442232912</ele>
        <time>2022-02-01T14:50:04Z</time>
      </trkpt>
      <trkpt lat="43.57602" lon="2.11932">
        <ele>159.43544400689</ele>
        <time>2022-02-01T14:50:12Z</time>
      </trkpt>
      <trkpt lat="43.57603" lon="2.11943">
        <ele>160.47416913768</ele>
        <time>2022-02-01T14:50:18Z</time>
      </trkpt>
      <trkpt lat="43.576" lon="2.11954">
        <ele>159.13116498626</ele>
        <time>2022-02-01T14:50:26Z</time>
      </trkpt>
      <trkpt lat="43.57599" lon="2.11965">
        <ele>158.48697736489</ele>
        <time>2022-02-01T14:50:33Z</time>
      </trkpt>
      <trkpt lat="43.57595" lon="2.11976">
        <ele>158.84718702831</ele>
        <time>2022-02-01T14:50:42Z</time>
      </trkpt>
      <trkpt lat="43.57592" lon="2.11986">
        <ele>159.38143497136</ele>
        <time>2022-02-01T14:50:50Z</time>
      </trkpt>
      <trkpt lat="43.57587" lon="2.11995">
        <ele>159.77917570228</ele>
        <time>2022-02-01T14:50:57Z</time>
      </trkpt>
      <trkpt lat="43.57582" lon="2.12003">
        <ele>161.05605957023</ele>
        <time>2022-02-01T14:51:04Z</time>
      </trkpt>
      <trkpt lat="43.57576" lon="2.12012">
        <ele>163.1383780716</ele>
        <time>2022-02-01T14:51:12Z</time>
      </trkpt>
      <trkpt lat="43.5757" lon="2.1202">
        <ele>165.08864284123</ele>
        <time>2022-02-01T14:51:20Z</time>
      </trkpt>
      <trkpt lat="43.57564" lon="2.12028">
        <ele>164.40709416904</ele>
        <time>2022-02-01T14:51:29Z</time>
      </trkpt>
      <trkpt lat="43.57559" lon="2.12037">
        <ele>164.01104266041</ele>
        <time>2022-02-01T14:51:36Z</time>
      </trkpt>
      <trkpt lat="43.57561" lon="2.12048">
        <ele>163.81930083532</ele>
        <time>2022-02-01T14:51:46Z</time>
      </trkpt>
      <trkpt lat="43.57566" lon="2.12056">
        <ele>163.21118986434</ele>
        <time>2022-02-01T14:51:53Z</time>
      </trkpt>
      <trkpt lat="43.57572" lon="2.12065">
        <ele>161.24237050677</ele>
        <time>2022-02-01T14:52:00Z</time>
      </trkpt>
      <trkpt lat="43.57576" lon="2.12075">
        <ele>160.31647009657</ele>
        <time>2022-02-01T14:52:08Z</time>
      </trkpt>
      <trkpt lat="43.57581" lon="2.12083">
        <ele>160.08868995833</ele>
        <time>2022-02-01T14:52:16Z</time>
      </trkpt>
      <trkpt lat="43.57588" lon="2.12091">
        <ele>160.16782778863</ele>
        <time>2022-02-01T14:52:26Z</time>
      </trkpt>
      <trkpt lat="43.57595" lon="2.12097">
        <ele>160.24833016837</ele>
        <time>2022-02-01T14:52:36Z</time>
      </trkpt>
      <trkpt lat="43.57603" lon="2.12102">
        <ele>161.10576398326</ele>
        <time>2022-02-01T14:52:44Z</time>
      </trkpt>
      <trkpt lat="43.5761" lon="2.12108">
        <ele>162.28800555654</ele>
        <time>2022-02-01T14:52:52Z</time>
      </trkpt>
      <trkpt lat="43.57618" lon="2.12112">
        <ele>162.73458458329</ele>
        <time>2022-02-01T14:53:01Z</time>
      </trkpt>
      <trkpt lat="43.57626" lon="2.12118">
        <ele>162.80529376869</ele>
        <time>2022-02-01T14:53:09Z</time>
      </trkpt>
      <trkpt lat="43.57634" lon="2.12122">
        <ele>163.92992007163</ele>
        <time>2022-02-01T14:53:15Z</time>
      </trkpt>
      <trkpt lat="43.57642" lon="2.12124">
        <ele>164.12297306227</ele>
        <time>2022-02-01T14:53:23Z</time>
      </trkpt>
      <trkpt lat="43.5765" lon="2.12123">
        <ele>165.24954655247</ele>
        <time>2022-02-01T14:53:32Z</time>
      </trkpt>
      <trkpt lat="43.57659" lon="2.12122">
        <ele>166.9384796751</ele>
        <time>2022-02-01T14:53:39Z</time>
      </trkpt>
      <trkpt lat="43.57667" lon="2.12122">
        <ele>166.86527468438</ele>
        <time>2022-02-01T14:53:46Z</time>
      </trkpt>
      <trkpt lat="43.57675" lon="2.12121">
        <ele>166.31692861551</ele>
        <time>2022-02-01T14:53:54Z</time>
      </trkpt>
      <trkpt lat="43.57682" lon="2.12115">
        <ele>167.93624837999</ele>
        <time>2022-02-01T14:54:01Z</time>
      </trkpt>
      <trkpt lat="43.57688" lon="2.12107">
        <ele>169.46064461804</ele>
        <time>2022-02-01T14:54:08Z</time>
      </trkpt>
      <trkpt lat="43.57695" lon="2.121">
        <ele>170.48316277618</ele>
        <time>2022-02-01T14:54:16Z</time>
      </trkpt>
      <trkpt lat="43.57699" lon="2.1209">
        <ele>171.86354323405</ele>
        <time>2022-02-01T14:54:23Z</time>
      </trkpt>
      <trkpt lat="43.57706" lon="2.12087">
        <ele>170.56685720886</ele>
        <time>2022-02-01T14:54:31Z</time>
      </trkpt>
      <trkpt lat="43.57712" lon="2.12079">
        <ele>169.88512950412</ele>
        <time>2022-02-01T14:54:38Z</time>
      </trkpt>
      <trkpt lat="43.57718" lon="2.12071">
        <ele>170.04187641105</ele>
        <time>2022-02-01T14:54:45Z</time>
      </trkpt>
      <trkpt lat="43.57723" lon="2.12061">
        <ele>171.097213898</ele>
        <time>2022-02-01T14:54:54Z</time>
      </trkpt>
      <trkpt lat="43.57731" lon="2.12055">
        <ele>170.51448527827</ele>
        <time>2022-02-01T14:55:02Z</time>
      </trkpt>
      <trkpt lat="43.57735" lon="2.12046">
        <ele>169.6671593211</ele>
        <time>2022-02-01T14:55:11Z</time>
      </trkpt>
      <trkpt lat="43.5774" lon="2.12037">
        <ele>169.38835799164</ele>
        <time>2022-02-01T14:55:17Z</time>
      </trkpt>
      <trkpt lat="43.57746" lon="2.1203">
        <ele>168.19019961243</ele>
        <time>2022-02-01T14:55:25Z</time>
      </trkpt>
      <trkpt lat="43.57752" lon="2.12023">
        <ele>168.33141908172</ele>
        <time>2022-02-01T14:55:32Z</time>
      </trkpt>
      <trkpt lat="43.57759" lon="2.12016">
        <ele>168.24771560363</ele>
        <time>2022-02-01T14:55:39Z</time>
      </trkpt>
      <trkpt lat="43.57767" lon="2.12012">
        <ele>168.649694707</ele>
        <time>2022-02-01T14:55:46Z</time>
      </trkpt>
      <trkpt lat="43.57774" lon="2.12008">
        <ele>168.25627444725</ele>
        <time>2022-02-01T14:55:55Z</time>
      </trkpt>
      <trkpt lat="43.57782" lon="2.12004">
        <ele>169.08076178247</ele>
        <time>2022-02-01T14:56:02Z</time>
      </trkpt>
      <trkpt lat="43.57791" lon="2.12003">
        <ele>169.77058348132</ele>
        <time>2022-02-01T14:56:09Z</time>
      </trkpt>
      <trkpt lat="43.57799" lon="2.12005">
        <ele>169.53554527934</ele>
        <time>2022-02-01T14:56:16Z</time>
      </trkpt>
      <trkpt lat="43.57807" lon="2.12007">
        <ele>170.11468774101</ele>
        <time>2022-02-01T14:56:24Z</time>
      </trkpt>
      <trkpt lat="43.57815" lon="2.12008">
        <ele>169.9529656222</ele>
        <time>2022-02-01T14:56:31Z</time>
      </trkpt>
      <trkpt lat="43.57822" lon="2.12012">
        <ele>170.39031642579</ele>
        <time>2022-02-01T14:56:39Z</time>
      </trkpt>
      <trkpt lat="43.5783" lon="2.12016">
        <ele>170.44858605238</ele>
        <time>2022-02-01T14:56:44Z</time>
      </trkpt>
      <trkpt lat="43.57837" lon="2.12021">
        <ele>168.30421581318</ele>
        <time>2022-02-01T14:56:51Z</time>
      </trkpt>
      <trkpt lat="43.57845" lon="2.12026">
        <ele>167.77984768387</ele>
        <time>2022-02-01T14:57:00Z</time>
      </trkpt>
      <trkpt lat="43.57853" lon="2.12025">
        <ele>168.17729925466</ele>
        <time>2022-02-01T14:57:06Z</time>
      </trkpt>
      <trkpt lat="43.57862" lon="2.12027">
        <ele>168.22638103712</ele>
        <time>2022-02-01T14:57:15Z</time>
      </trkpt>
      <trkpt lat="43.5787" lon="2.12028">
        <ele>168.08068814813</ele>
        <time>2022-02-01T14:57:24Z</time>
      </trkpt>
      <trkpt lat="43.57879" lon="2.12029">
        <ele>165.52516568165</ele>
        <time>2022-02-01T14:57:32Z</time>
      </trkpt>
      <trkpt lat="43.57887" lon="2.12028">
        <ele>163.77341725601</ele>
        <time>2022-02-01T14:57:39Z</time>
      </trkpt>
      <trkpt lat="43.57895" lon="2.12029">
        <ele>162.16711574418</ele>
        <time>2022-02-01T14:57:46Z</time>
      </trkpt>
      <trkpt lat="43.57904" lon="2.12029">
        <ele>161.75018275914</ele>
        <time>2022-02-01T14:57:53Z</time>
      </trkpt>
      <trkpt lat="43.57912" lon="2.12028">
        <ele>162.0573669617</ele>
        <time>2022-02-01T14:58:01Z</time>
      </trkpt>
      <trkpt lat="43.57921" lon="2.12027">
        <ele>161.13479036875</ele>
        <time>2022-02-01T14:58:09Z</time>
      </trkpt>
      <trkpt lat="43.57929" lon="2.12026">
        <ele>160.79627290068</ele>
        <time>2022-02-01T14:58:16Z</time>
      </trkpt>
      <trkpt lat="43.57937" lon="2.1202">
        <ele>161.11168049197</ele>
        <time>2022-02-01T14:58:25Z</time>
      </trkpt>
      <trkpt lat="43.57945" lon="2.12016">
        <ele>161.38237176505</ele>
        <time>2022-02-01T14:58:34Z</time>
      </trkpt>
      <trkpt lat="43.57953" lon="2.12014">
        <ele>161.94170598124</ele>
        <time>2022-02-01T14:58:41Z</time>
      </trkpt>
      <trkpt lat="43.57961" lon="2.1201">
        <ele>162.71537059087</ele>
        <time>2022-02-01T14:58:46Z</time>
      </trkpt>
      <trkpt lat="43.57968" lon="2.12007">
        <ele>163.47894869549</ele>
        <time>2022-02-01T14:58:52Z</time>
      </trkpt>
      <trkpt lat="43.57976" lon="2.12005">
        <ele>164.06300494836</ele>
        <time>2022-02-01T14:58:59Z</time>
      </trkpt>
      <trkpt lat="43.57984" lon="2.12002">
        <ele>165.8488410407</ele>
        <time>2022-02-01T14:59:06Z</time>
      </trkpt>
      <trkpt lat="43.57993" lon="2.12001">
        <ele>167.02493586318</ele>
        <time>2022-02-01T14:59:12Z</time>
      </trkpt>
      <trkpt lat="43.58002" lon="2.12001">
        <ele>167.89225460938</ele>
        <time>2022-02-01T14:59:19Z</time>
      </trkpt>
      <trkpt lat="43.5801" lon="2.12001">
        <ele>168.13661122066</ele>
        <time>2022-02-01T14:59:26Z</time>
      </trkpt>
      <trkpt lat="43.58019" lon="2.12003">
        <ele>169.43294591023</ele>
        <time>2022-02-01T14:59:33Z</time>
      </trkpt>
      <trkpt lat="43.58028" lon="2.12005">
        <ele>171.5811348646</ele>
        <time>2022-02-01T14:59:41Z</time>
      </trkpt>
      <trkpt lat="43.58035" lon="2.12009">
        <ele>171.31404185939</ele>
        <time>2022-02-01T14:59:47Z</time>
      </trkpt>
      <trkpt lat="43.58044" lon="2.12013">
        <ele>170.86276975247</ele>
        <time>2022-02-01T14:59:57Z</time>
      </trkpt>
      <trkpt lat="43.58052" lon="2.12018">
        <ele>168.84274533602</ele>
        <time>2022-02-01T15:00:06Z</time>
      </trkpt>
      <trkpt lat="43.58058" lon="2.12026">
        <ele>162.86531860776</ele>
        <time>2022-02-01T15:04:02Z</time>
      </trkpt>
      <trkpt lat="43.58067" lon="2.12026">
        <ele>160.59617386442</ele>
        <time>2022-02-01T15:04:16Z</time>
      </trkpt>
      <trkpt lat="43.58075" lon="2.12031">
        <ele>160.41453288936</ele>
        <time>2022-02-01T15:04:25Z</time>
      </trkpt>
      <trkpt lat="43.58082" lon="2.1204">
        <ele>161.39468681727</ele>
        <time>2022-02-01T15:04:33Z</time>
      </trkpt>
      <trkpt lat="43.58088" lon="2.12048">
        <ele>161.97828352407</ele>
        <time>2022-02-01T15:04:40Z</time>
      </trkpt>
      <trkpt lat="43.58093" lon="2.12056">
        <ele>163.2742628052</ele>
        <time>2022-02-01T15:04:46Z</time>
      </trkpt>
      <trkpt lat="43.58099" lon="2.12062">
        <ele>163.33084121061</ele>
        <time>2022-02-01T15:04:52Z</time>
      </trkpt>
      <trkpt lat="43.58105" lon="2.1207">
        <ele>162.26531607633</ele>
        <time>2022-02-01T15:04:59Z</time>
      </trkpt>
      <trkpt lat="43.58112" lon="2.12077">
        <ele>159.48906937401</ele>
        <time>2022-02-01T15:05:10Z</time>
      </trkpt>
      <trkpt lat="43.58119" lon="2.12083">
        <ele>159.25599161845</ele>
        <time>2022-02-01T15:05:19Z</time>
      </trkpt>
      <trkpt lat="43.58124" lon="2.12093">
        <ele>158.28960167857</ele>
        <time>2022-02-01T15:05:26Z</time>
      </trkpt>
      <trkpt lat="43.58129" lon="2.12099">
        <ele>158.00774377283</ele>
        <time>2022-02-01T15:05:35Z</time>
      </trkpt>
      <trkpt lat="43.58133" lon="2.12109">
        <ele>160.39763545328</ele>
        <time>2022-02-01T15:05:39Z</time>
      </trkpt>
      <trkpt lat="43.58139" lon="2.12117">
        <ele>160.9902206174</ele>
        <time>2022-02-01T15:05:46Z</time>
      </trkpt>
      <trkpt lat="43.58142" lon="2.12127">
        <ele>164.24540741086</ele>
        <time>2022-02-01T15:05:52Z</time>
      </trkpt>
      <trkpt lat="43.58147" lon="2.12135">
        <ele>164.83881146092</ele>
        <time>2022-02-01T15:05:59Z</time>
      </trkpt>
      <trkpt lat="43.58154" lon="2.12142">
        <ele>164.62147789414</ele>
        <time>2022-02-01T15:06:07Z</time>
      </trkpt>
      <trkpt lat="43.5816" lon="2.1215">
        <ele>165.20684064942</ele>
        <time>2022-02-01T15:06:15Z</time>
      </trkpt>
      <trkpt lat="43.58165" lon="2.1216">
        <ele>165.82053743639</ele>
        <time>2022-02-01T15:06:24Z</time>
      </trkpt>
      <trkpt lat="43.58171" lon="2.12169">
        <ele>164.38632251954</ele>
        <time>2022-02-01T15:06:31Z</time>
      </trkpt>
      <trkpt lat="43.58176" lon="2.12177">
        <ele>163.16804895808</ele>
        <time>2022-02-01T15:06:39Z</time>
      </trkpt>
      <trkpt lat="43.58183" lon="2.12184">
        <ele>163.43120708492</ele>
        <time>2022-02-01T15:06:46Z</time>
      </trkpt>
      <trkpt lat="43.58189" lon="2.12192">
        <ele>164.62110991718</ele>
        <time>2022-02-01T15:06:54Z</time>
      </trkpt>
      <trkpt lat="43.58194" lon="2.12201">
        <ele>163.87752781001</ele>
        <time>2022-02-01T15:07:03Z</time>
      </trkpt>
      <trkpt lat="43.58199" lon="2.12211">
        <ele>163.29189785785</ele>
        <time>2022-02-01T15:07:11Z</time>
      </trkpt>
      <trkpt lat="43.58204" lon="2.1222">
        <ele>161.86375096407</ele>
        <time>2022-02-01T15:07:18Z</time>
      </trkpt>
      <trkpt lat="43.58209" lon="2.12229">
        <ele>160.70858564984</ele>
        <time>2022-02-01T15:07:25Z</time>
      </trkpt>
      <trkpt lat="43.58213" lon="2.12238">
        <ele>162.30504788245</ele>
        <time>2022-02-01T15:07:34Z</time>
      </trkpt>
      <trkpt lat="43.58218" lon="2.12249">
        <ele>162.10596264509</ele>
        <time>2022-02-01T15:07:43Z</time>
      </trkpt>
      <trkpt lat="43.58223" lon="2.12258">
        <ele>161.31160372106</ele>
        <time>2022-02-01T15:07:51Z</time>
      </trkpt>
      <trkpt lat="43.58229" lon="2.12266">
        <ele>160.63988335286</ele>
        <time>2022-02-01T15:07:58Z</time>
      </trkpt>
      <trkpt lat="43.58235" lon="2.12275">
        <ele>161.54181286111</ele>
        <time>2022-02-01T15:08:06Z</time>
      </trkpt>
      <trkpt lat="43.5824" lon="2.12284">
        <ele>161.71981760946</ele>
        <time>2022-02-01T15:08:13Z</time>
      </trkpt>
      <trkpt lat="43.58245" lon="2.12293">
        <ele>161.20411472547</ele>
        <time>2022-02-01T15:08:20Z</time>
      </trkpt>
      <trkpt lat="43.58249" lon="2.12304">
        <ele>160.58764394197</ele>
        <time>2022-02-01T15:08:28Z</time>
      </trkpt>
      <trkpt lat="43.58252" lon="2.12315">
        <ele>160.05441926189</ele>
        <time>2022-02-01T15:08:36Z</time>
      </trkpt>
      <trkpt lat="43.58255" lon="2.12326">
        <ele>160.78648553952</ele>
        <time>2022-02-01T15:08:44Z</time>
      </trkpt>
      <trkpt lat="43.58259" lon="2.12337">
        <ele>159.8200126693</ele>
        <time>2022-02-01T15:08:51Z</time>
      </trkpt>
      <trkpt lat="43.58264" lon="2.12346">
        <ele>160.7745670966</ele>
        <time>2022-02-01T15:08:57Z</time>
      </trkpt>
      <trkpt lat="43.58269" lon="2.12356">
        <ele>161.16840307915</ele>
        <time>2022-02-01T15:09:04Z</time>
      </trkpt>
      <trkpt lat="43.58272" lon="2.12367">
        <ele>161.80432490922</ele>
        <time>2022-02-01T15:09:12Z</time>
      </trkpt>
      <trkpt lat="43.58276" lon="2.12377">
        <ele>161.41897336843</ele>
        <time>2022-02-01T15:09:20Z</time>
      </trkpt>
      <trkpt lat="43.5828" lon="2.12387">
        <ele>161.77093700975</ele>
        <time>2022-02-01T15:09:28Z</time>
      </trkpt>
      <trkpt lat="43.58284" lon="2.12397">
        <ele>161.43878194638</ele>
        <time>2022-02-01T15:09:35Z</time>
      </trkpt>
      <trkpt lat="43.58288" lon="2.12406">
        <ele>161.79278024984</ele>
        <time>2022-02-01T15:09:43Z</time>
      </trkpt>
      <trkpt lat="43.58293" lon="2.12416">
        <ele>161.46594469072</ele>
        <time>2022-02-01T15:09:51Z</time>
      </trkpt>
      <trkpt lat="43.58297" lon="2.12427">
        <ele>160.78066346571</ele>
        <time>2022-02-01T15:09:58Z</time>
      </trkpt>
      <trkpt lat="43.58302" lon="2.12436">
        <ele>160.97755981397</ele>
        <time>2022-02-01T15:10:06Z</time>
      </trkpt>
      <trkpt lat="43.58305" lon="2.12447">
        <ele>160.79015670071</ele>
        <time>2022-02-01T15:10:14Z</time>
      </trkpt>
      <trkpt lat="43.58309" lon="2.12457">
        <ele>160.54561640588</ele>
        <time>2022-02-01T15:10:21Z</time>
      </trkpt>
      <trkpt lat="43.58313" lon="2.12468">
        <ele>159.47986455</ele>
        <time>2022-02-01T15:10:29Z</time>
      </trkpt>
      <trkpt lat="43.58317" lon="2.12478">
        <ele>159.02049905224</ele>
        <time>2022-02-01T15:10:37Z</time>
      </trkpt>
      <trkpt lat="43.58321" lon="2.12487">
        <ele>159.44535363409</ele>
        <time>2022-02-01T15:10:44Z</time>
      </trkpt>
      <trkpt lat="43.58324" lon="2.12498">
        <ele>159.61354227586</ele>
        <time>2022-02-01T15:10:52Z</time>
      </trkpt>
      <trkpt lat="43.58328" lon="2.12509">
        <ele>159.62263467547</ele>
        <time>2022-02-01T15:11:00Z</time>
      </trkpt>
      <trkpt lat="43.58332" lon="2.12519">
        <ele>159.75604785876</ele>
        <time>2022-02-01T15:11:07Z</time>
      </trkpt>
      <trkpt lat="43.58336" lon="2.1253">
        <ele>160.22219324248</ele>
        <time>2022-02-01T15:11:15Z</time>
      </trkpt>
      <trkpt lat="43.58341" lon="2.12539">
        <ele>160.34310316327</ele>
        <time>2022-02-01T15:11:23Z</time>
      </trkpt>
      <trkpt lat="43.58344" lon="2.1255">
        <ele>161.07535069567</ele>
        <time>2022-02-01T15:11:32Z</time>
      </trkpt>
      <trkpt lat="43.58349" lon="2.1256">
        <ele>160.41290432867</ele>
        <time>2022-02-01T15:11:40Z</time>
      </trkpt>
      <trkpt lat="43.58352" lon="2.1257">
        <ele>160.23200880864</ele>
        <time>2022-02-01T15:11:47Z</time>
      </trkpt>
      <trkpt lat="43.58357" lon="2.1258">
        <ele>159.73485737972</ele>
        <time>2022-02-01T15:11:55Z</time>
      </trkpt>
      <trkpt lat="43.5836" lon="2.12591">
        <ele>159.91876323111</ele>
        <time>2022-02-01T15:12:03Z</time>
      </trkpt>
      <trkpt lat="43.58364" lon="2.12602">
        <ele>161.4136173138</ele>
        <time>2022-02-01T15:12:11Z</time>
      </trkpt>
      <trkpt lat="43.58368" lon="2.12612">
        <ele>161.22428666242</ele>
        <time>2022-02-01T15:12:18Z</time>
      </trkpt>
      <trkpt lat="43.58372" lon="2.12624">
        <ele>160.6008056571</ele>
        <time>2022-02-01T15:12:26Z</time>
      </trkpt>
      <trkpt lat="43.58376" lon="2.12633">
        <ele>160.54762071213</ele>
        <time>2022-02-01T15:12:34Z</time>
      </trkpt>
      <trkpt lat="43.58381" lon="2.12643">
        <ele>160.05620445638</ele>
        <time>2022-02-01T15:12:42Z</time>
      </trkpt>
      <trkpt lat="43.58386" lon="2.12653">
        <ele>161.83148037848</ele>
        <time>2022-02-01T15:12:49Z</time>
      </trkpt>
      <trkpt lat="43.58391" lon="2.12663">
        <ele>162.97776545743</ele>
        <time>2022-02-01T15:12:57Z</time>
      </trkpt>
      <trkpt lat="43.58395" lon="2.12673">
        <ele>163.26363171886</ele>
        <time>2022-02-01T15:13:03Z</time>
      </trkpt>
      <trkpt lat="43.58397" lon="2.12684">
        <ele>162.62389016936</ele>
        <time>2022-02-01T15:13:12Z</time>
      </trkpt>
      <trkpt lat="43.58401" lon="2.12694">
        <ele>162.2314746367</ele>
        <time>2022-02-01T15:13:19Z</time>
      </trkpt>
      <trkpt lat="43.58404" lon="2.12705">
        <ele>160.79298924721</ele>
        <time>2022-02-01T15:13:27Z</time>
      </trkpt>
      <trkpt lat="43.58407" lon="2.12716">
        <ele>160.33116842096</ele>
        <time>2022-02-01T15:13:35Z</time>
      </trkpt>
      <trkpt lat="43.58411" lon="2.12726">
        <ele>159.65583450253</ele>
        <time>2022-02-01T15:13:43Z</time>
      </trkpt>
      <trkpt lat="43.58415" lon="2.12737">
        <ele>159.71457908065</ele>
        <time>2022-02-01T15:13:50Z</time>
      </trkpt>
      <trkpt lat="43.5842" lon="2.12747">
        <ele>159.91038210467</ele>
        <time>2022-02-01T15:13:57Z</time>
      </trkpt>
      <trkpt lat="43.58423" lon="2.12758">
        <ele>159.91818007344</ele>
        <time>2022-02-01T15:14:05Z</time>
      </trkpt>
      <trkpt lat="43.58427" lon="2.12768">
        <ele>159.78395699669</ele>
        <time>2022-02-01T15:14:13Z</time>
      </trkpt>
      <trkpt lat="43.58431" lon="2.12778">
        <ele>160.59255008935</ele>
        <time>2022-02-01T15:14:20Z</time>
      </trkpt>
      <trkpt lat="43.58436" lon="2.12787">
        <ele>161.01596358543</ele>
        <time>2022-02-01T15:14:27Z</time>
      </trkpt>
      <trkpt lat="43.5844" lon="2.12797">
        <ele>161.32245939018</ele>
        <time>2022-02-01T15:14:34Z</time>
      </trkpt>
      <trkpt lat="43.58443" lon="2.12808">
        <ele>160.75253852828</ele>
        <time>2022-02-01T15:14:42Z</time>
      </trkpt>
      <trkpt lat="43.58447" lon="2.12819">
        <ele>160.45846437552</ele>
        <time>2022-02-01T15:14:50Z</time>
      </trkpt>
      <trkpt lat="43.58452" lon="2.12829">
        <ele>160.66766809158</ele>
        <time>2022-02-01T15:14:58Z</time>
      </trkpt>
      <trkpt lat="43.58455" lon="2.1284">
        <ele>161.29115038135</ele>
        <time>2022-02-01T15:15:06Z</time>
      </trkpt>
      <trkpt lat="43.58458" lon="2.1285">
        <ele>161.30166699882</ele>
        <time>2022-02-01T15:15:14Z</time>
      </trkpt>
      <trkpt lat="43.58462" lon="2.12861">
        <ele>161.56845667621</ele>
        <time>2022-02-01T15:15:22Z</time>
      </trkpt>
      <trkpt lat="43.58465" lon="2.1287">
        <ele>161.30159629983</ele>
        <time>2022-02-01T15:15:29Z</time>
      </trkpt>
      <trkpt lat="43.58469" lon="2.1288">
        <ele>160.79055573047</ele>
        <time>2022-02-01T15:15:36Z</time>
      </trkpt>
      <trkpt lat="43.58474" lon="2.1289">
        <ele>159.89389062627</ele>
        <time>2022-02-01T15:15:43Z</time>
      </trkpt>
      <trkpt lat="43.58477" lon="2.12901">
        <ele>159.69555427445</ele>
        <time>2022-02-01T15:15:51Z</time>
      </trkpt>
      <trkpt lat="43.58479" lon="2.12912">
        <ele>159.87923884432</ele>
        <time>2022-02-01T15:15:59Z</time>
      </trkpt>
      <trkpt lat="43.58481" lon="2.12923">
        <ele>159.71295888102</ele>
        <time>2022-02-01T15:16:07Z</time>
      </trkpt>
      <trkpt lat="43.58485" lon="2.12933">
        <ele>159.77592455448</ele>
        <time>2022-02-01T15:16:14Z</time>
      </trkpt>
      <trkpt lat="43.58489" lon="2.12943">
        <ele>159.88047986059</ele>
        <time>2022-02-01T15:16:22Z</time>
      </trkpt>
      <trkpt lat="43.58493" lon="2.12953">
        <ele>159.89529261121</ele>
        <time>2022-02-01T15:16:30Z</time>
      </trkpt>
      <trkpt lat="43.58498" lon="2.12963">
        <ele>159.46278001458</ele>
        <time>2022-02-01T15:16:38Z</time>
      </trkpt>
      <trkpt lat="43.58502" lon="2.12974">
        <ele>159.12322272206</ele>
        <time>2022-02-01T15:16:45Z</time>
      </trkpt>
      <trkpt lat="43.58506" lon="2.12984">
        <ele>158.91065238769</ele>
        <time>2022-02-01T15:16:53Z</time>
      </trkpt>
      <trkpt lat="43.58509" lon="2.12995">
        <ele>157.7056207825</ele>
        <time>2022-02-01T15:17:01Z</time>
      </trkpt>
      <trkpt lat="43.58512" lon="2.13005">
        <ele>158.49559038618</ele>
        <time>2022-02-01T15:17:08Z</time>
      </trkpt>
      <trkpt lat="43.58516" lon="2.13014">
        <ele>159.15022338772</ele>
        <time>2022-02-01T15:17:14Z</time>
      </trkpt>
      <trkpt lat="43.58521" lon="2.13023">
        <ele>159.54295944074</ele>
        <time>2022-02-01T15:17:20Z</time>
      </trkpt>
      <trkpt lat="43.58524" lon="2.13034">
        <ele>159.55845802812</ele>
        <time>2022-02-01T15:17:28Z</time>
      </trkpt>
      <trkpt lat="43.58526" lon="2.13045">
        <ele>159.44604148415</ele>
        <time>2022-02-01T15:17:36Z</time>
      </trkpt>
      <trkpt lat="43.5853" lon="2.13055">
        <ele>160.10326681265</ele>
        <time>2022-02-01T15:17:43Z</time>
      </trkpt>
      <trkpt lat="43.58535" lon="2.13064">
        <ele>160.94529708349</ele>
        <time>2022-02-01T15:17:49Z</time>
      </trkpt>
      <trkpt lat="43.58537" lon="2.13074">
        <ele>161.80165044928</ele>
        <time>2022-02-01T15:17:56Z</time>
      </trkpt>
      <trkpt lat="43.58541" lon="2.13085">
        <ele>161.24985003694</ele>
        <time>2022-02-01T15:18:05Z</time>
      </trkpt>
      <trkpt lat="43.58545" lon="2.13096">
        <ele>160.37767672424</ele>
        <time>2022-02-01T15:18:13Z</time>
      </trkpt>
      <trkpt lat="43.58549" lon="2.13107">
        <ele>159.48236311584</ele>
        <time>2022-02-01T15:18:20Z</time>
      </trkpt>
      <trkpt lat="43.58551" lon="2.13118">
        <ele>158.48733965772</ele>
        <time>2022-02-01T15:18:29Z</time>
      </trkpt>
      <trkpt lat="43.58555" lon="2.13127">
        <ele>159.24449864151</ele>
        <time>2022-02-01T15:18:36Z</time>
      </trkpt>
      <trkpt lat="43.58561" lon="2.13136">
        <ele>159.93126121639</ele>
        <time>2022-02-01T15:18:43Z</time>
      </trkpt>
      <trkpt lat="43.58565" lon="2.13148">
        <ele>160.89921134305</ele>
        <time>2022-02-01T15:18:51Z</time>
      </trkpt>
      <trkpt lat="43.58567" lon="2.13159">
        <ele>161.43581807498</ele>
        <time>2022-02-01T15:18:59Z</time>
      </trkpt>
      <trkpt lat="43.58568" lon="2.1317">
        <ele>162.32319408648</ele>
        <time>2022-02-01T15:19:08Z</time>
      </trkpt>
      <trkpt lat="43.58571" lon="2.13181">
        <ele>162.05514471777</ele>
        <time>2022-02-01T15:19:17Z</time>
      </trkpt>
      <trkpt lat="43.58574" lon="2.13192">
        <ele>162.09267904895</ele>
        <time>2022-02-01T15:19:24Z</time>
      </trkpt>
      <trkpt lat="43.58577" lon="2.13202">
        <ele>162.11869123398</ele>
        <time>2022-02-01T15:19:32Z</time>
      </trkpt>
      <trkpt lat="43.58581" lon="2.13213">
        <ele>164.48058735218</ele>
        <time>2022-02-01T15:19:41Z</time>
      </trkpt>
      <trkpt lat="43.58585" lon="2.13222">
        <ele>164.66801557969</ele>
        <time>2022-02-01T15:19:47Z</time>
      </trkpt>
      <trkpt lat="43.5859" lon="2.13231">
        <ele>165.19883557427</ele>
        <time>2022-02-01T15:19:53Z</time>
      </trkpt>
      <trkpt lat="43.58596" lon="2.13239">
        <ele>163.21518994558</ele>
        <time>2022-02-01T15:20:01Z</time>
      </trkpt>
      <trkpt lat="43.58601" lon="2.13248">
        <ele>162.81353153693</ele>
        <time>2022-02-01T15:20:08Z</time>
      </trkpt>
      <trkpt lat="43.58605" lon="2.13258">
        <ele>162.03858540809</ele>
        <time>2022-02-01T15:20:15Z</time>
      </trkpt>
      <trkpt lat="43.5861" lon="2.13267">
        <ele>162.84198206099</ele>
        <time>2022-02-01T15:20:21Z</time>
      </trkpt>
      <trkpt lat="43.58614" lon="2.13277">
        <ele>163.12015933734</ele>
        <time>2022-02-01T15:20:28Z</time>
      </trkpt>
      <trkpt lat="43.58618" lon="2.13288">
        <ele>162.82596341222</ele>
        <time>2022-02-01T15:20:35Z</time>
      </trkpt>
      <trkpt lat="43.58618" lon="2.13299">
        <ele>161.9719736104</ele>
        <time>2022-02-01T15:20:43Z</time>
      </trkpt>
      <trkpt lat="43.58622" lon="2.1331">
        <ele>159.22529480648</ele>
        <time>2022-02-01T15:20:51Z</time>
      </trkpt>
      <trkpt lat="43.58628" lon="2.13319">
        <ele>159.28326137118</ele>
        <time>2022-02-01T15:20:58Z</time>
      </trkpt>
      <trkpt lat="43.58632" lon="2.13329">
        <ele>160.25971696114</ele>
        <time>2022-02-01T15:21:06Z</time>
      </trkpt>
      <trkpt lat="43.58638" lon="2.13338">
        <ele>160.38680679342</ele>
        <time>2022-02-01T15:21:13Z</time>
      </trkpt>
      <trkpt lat="43.58641" lon="2.13348">
        <ele>160.04540955462</ele>
        <time>2022-02-01T15:21:20Z</time>
      </trkpt>
      <trkpt lat="43.58643" lon="2.13358">
        <ele>160.9107785924</ele>
        <time>2022-02-01T15:21:26Z</time>
      </trkpt>
      <trkpt lat="43.58646" lon="2.13369">
        <ele>160.74989890091</ele>
        <time>2022-02-01T15:21:33Z</time>
      </trkpt>
      <trkpt lat="43.5865" lon="2.13379">
        <ele>160.78870169959</ele>
        <time>2022-02-01T15:21:39Z</time>
      </trkpt>
      <trkpt lat="43.58654" lon="2.13389">
        <ele>160.97634621039</ele>
        <time>2022-02-01T15:21:46Z</time>
      </trkpt>
      <trkpt lat="43.58659" lon="2.13399">
        <ele>160.46604257031</ele>
        <time>2022-02-01T15:21:55Z</time>
      </trkpt>
      <trkpt lat="43.58663" lon="2.13409">
        <ele>160.6192112507</ele>
        <time>2022-02-01T15:22:02Z</time>
      </trkpt>
      <trkpt lat="43.58667" lon="2.1342">
        <ele>160.3355048729</ele>
        <time>2022-02-01T15:22:10Z</time>
      </trkpt>
      <trkpt lat="43.58669" lon="2.13432">
        <ele>159.26944102299</ele>
        <time>2022-02-01T15:22:18Z</time>
      </trkpt>
      <trkpt lat="43.58673" lon="2.13441">
        <ele>159.10305262675</ele>
        <time>2022-02-01T15:22:25Z</time>
      </trkpt>
      <trkpt lat="43.58677" lon="2.13451">
        <ele>160.29598217134</ele>
        <time>2022-02-01T15:22:31Z</time>
      </trkpt>
      <trkpt lat="43.58681" lon="2.13462">
        <ele>161.99723548846</ele>
        <time>2022-02-01T15:22:38Z</time>
      </trkpt>
      <trkpt lat="43.58682" lon="2.13474">
        <ele>163.448978378</ele>
        <time>2022-02-01T15:22:46Z</time>
      </trkpt>
      <trkpt lat="43.58682" lon="2.13485">
        <ele>165.77262384827</ele>
        <time>2022-02-01T15:22:53Z</time>
      </trkpt>
      <trkpt lat="43.58679" lon="2.13497">
        <ele>165.84510767464</ele>
        <time>2022-02-01T15:22:59Z</time>
      </trkpt>
      <trkpt lat="43.58676" lon="2.13507">
        <ele>163.9928190853</ele>
        <time>2022-02-01T15:23:05Z</time>
      </trkpt>
      <trkpt lat="43.58671" lon="2.13515">
        <ele>163.28616937534</ele>
        <time>2022-02-01T15:23:12Z</time>
      </trkpt>
      <trkpt lat="43.58669" lon="2.13527">
        <ele>164.24222696803</ele>
        <time>2022-02-01T15:23:20Z</time>
      </trkpt>
      <trkpt lat="43.58669" lon="2.13538">
        <ele>163.771366769</ele>
        <time>2022-02-01T15:23:26Z</time>
      </trkpt>
      <trkpt lat="43.5867" lon="2.13549">
        <ele>163.30753628925</ele>
        <time>2022-02-01T15:23:32Z</time>
      </trkpt>
      <trkpt lat="43.58667" lon="2.13559">
        <ele>162.60350180354</ele>
        <time>2022-02-01T15:23:39Z</time>
      </trkpt>
      <trkpt lat="43.58665" lon="2.1357">
        <ele>162.76531057041</ele>
        <time>2022-02-01T15:23:46Z</time>
      </trkpt>
      <trkpt lat="43.58663" lon="2.13582">
        <ele>163.82330756628</ele>
        <time>2022-02-01T15:23:54Z</time>
      </trkpt>
      <trkpt lat="43.58659" lon="2.13593">
        <ele>164.61277698837</ele>
        <time>2022-02-01T15:24:01Z</time>
      </trkpt>
      <trkpt lat="43.58653" lon="2.13602">
        <ele>166.89045316994</ele>
        <time>2022-02-01T15:24:13Z</time>
      </trkpt>
      <trkpt lat="43.5865" lon="2.13612">
        <ele>168.82306658734</ele>
        <time>2022-02-01T15:24:20Z</time>
      </trkpt>
      <trkpt lat="43.58646" lon="2.13622">
        <ele>169.43247531069</ele>
        <time>2022-02-01T15:24:26Z</time>
      </trkpt>
      <trkpt lat="43.58642" lon="2.13633">
        <ele>170.58640336347</ele>
        <time>2022-02-01T15:24:33Z</time>
      </trkpt>
      <trkpt lat="43.5864" lon="2.13643">
        <ele>171.16178771118</ele>
        <time>2022-02-01T15:24:40Z</time>
      </trkpt>
      <trkpt lat="43.58637" lon="2.13654">
        <ele>170.83869187728</ele>
        <time>2022-02-01T15:24:47Z</time>
      </trkpt>
      <trkpt lat="43.5863" lon="2.13661">
        <ele>171.32600034217</ele>
        <time>2022-02-01T15:24:55Z</time>
      </trkpt>
      <trkpt lat="43.58626" lon="2.1367">
        <ele>171.05608309042</ele>
        <time>2022-02-01T15:25:01Z</time>
      </trkpt>
      <trkpt lat="43.58623" lon="2.13681">
        <ele>171.63569351957</ele>
        <time>2022-02-01T15:25:08Z</time>
      </trkpt>
      <trkpt lat="43.58618" lon="2.13691">
        <ele>171.91129216794</ele>
        <time>2022-02-01T15:25:14Z</time>
      </trkpt>
      <trkpt lat="43.58613" lon="2.13699">
        <ele>172.1354409941</ele>
        <time>2022-02-01T15:25:20Z</time>
      </trkpt>
      <trkpt lat="43.5861" lon="2.1371">
        <ele>172.04098369745</ele>
        <time>2022-02-01T15:25:32Z</time>
      </trkpt>
      <trkpt lat="43.58605" lon="2.13719">
        <ele>171.2496878979</ele>
        <time>2022-02-01T15:25:46Z</time>
      </trkpt>
      <trkpt lat="43.58599" lon="2.13728">
        <ele>171.43460004394</ele>
        <time>2022-02-01T15:25:52Z</time>
      </trkpt>
      <trkpt lat="43.58595" lon="2.13739">
        <ele>172.57221677593</ele>
        <time>2022-02-01T15:26:01Z</time>
      </trkpt>
      <trkpt lat="43.5859" lon="2.13746">
        <ele>171.06734719987</ele>
        <time>2022-02-01T15:26:06Z</time>
      </trkpt>
      <trkpt lat="43.58582" lon="2.13753">
        <ele>172.91177140421</ele>
        <time>2022-02-01T15:26:10Z</time>
      </trkpt>
      <trkpt lat="43.58576" lon="2.13758">
        <ele>175.42805852414</ele>
        <time>2022-02-01T15:26:15Z</time>
      </trkpt>
      <trkpt lat="43.58569" lon="2.13766">
        <ele>176.34255307536</ele>
        <time>2022-02-01T15:26:20Z</time>
      </trkpt>
      <trkpt lat="43.58564" lon="2.13774">
        <ele>178.0567073659</ele>
        <time>2022-02-01T15:26:26Z</time>
      </trkpt>
      <trkpt lat="43.58558" lon="2.13783">
        <ele>177.03807265481</ele>
        <time>2022-02-01T15:26:32Z</time>
      </trkpt>
      <trkpt lat="43.58553" lon="2.13791">
        <ele>176.41084914599</ele>
        <time>2022-02-01T15:26:37Z</time>
      </trkpt>
      <trkpt lat="43.5855" lon="2.13801">
        <ele>176.50161334902</ele>
        <time>2022-02-01T15:26:44Z</time>
      </trkpt>
      <trkpt lat="43.58545" lon="2.13811">
        <ele>176.36746970464</ele>
        <time>2022-02-01T15:26:52Z</time>
      </trkpt>
      <trkpt lat="43.5854" lon="2.1382">
        <ele>176.58472131982</ele>
        <time>2022-02-01T15:26:59Z</time>
      </trkpt>
      <trkpt lat="43.58536" lon="2.13832">
        <ele>175.46885402277</ele>
        <time>2022-02-01T15:27:12Z</time>
      </trkpt>
      <trkpt lat="43.58542" lon="2.1384">
        <ele>175.3366905693</ele>
        <time>2022-02-01T15:27:19Z</time>
      </trkpt>
      <trkpt lat="43.5854" lon="2.13852">
        <ele>175.15859461898</ele>
        <time>2022-02-01T15:27:26Z</time>
      </trkpt>
      <trkpt lat="43.58535" lon="2.13861">
        <ele>174.1353270834</ele>
        <time>2022-02-01T15:27:32Z</time>
      </trkpt>
      <trkpt lat="43.58536" lon="2.13873">
        <ele>172.18452444128</ele>
        <time>2022-02-01T15:27:40Z</time>
      </trkpt>
      <trkpt lat="43.58533" lon="2.13885">
        <ele>170.41424873831</ele>
        <time>2022-02-01T15:27:48Z</time>
      </trkpt>
      <trkpt lat="43.58531" lon="2.13896">
        <ele>171.68131313704</ele>
        <time>2022-02-01T15:27:57Z</time>
      </trkpt>
      <trkpt lat="43.58528" lon="2.13907">
        <ele>173.07162557371</ele>
        <time>2022-02-01T15:28:03Z</time>
      </trkpt>
      <trkpt lat="43.58524" lon="2.13916">
        <ele>173.71292903649</ele>
        <time>2022-02-01T15:28:08Z</time>
      </trkpt>
      <trkpt lat="43.58521" lon="2.13926">
        <ele>174.48837383372</ele>
        <time>2022-02-01T15:28:13Z</time>
      </trkpt>
      <trkpt lat="43.58516" lon="2.13936">
        <ele>175.12723187408</ele>
        <time>2022-02-01T15:28:18Z</time>
      </trkpt>
      <trkpt lat="43.58513" lon="2.13946">
        <ele>174.90431485351</ele>
        <time>2022-02-01T15:28:27Z</time>
      </trkpt>
      <trkpt lat="43.58511" lon="2.13957">
        <ele>176.5749573009</ele>
        <time>2022-02-01T15:28:35Z</time>
      </trkpt>
      <trkpt lat="43.58509" lon="2.13968">
        <ele>177.55286658238</ele>
        <time>2022-02-01T15:28:40Z</time>
      </trkpt>
      <trkpt lat="43.58503" lon="2.13977">
        <ele>176.86463056046</ele>
        <time>2022-02-01T15:28:47Z</time>
      </trkpt>
      <trkpt lat="43.58498" lon="2.13986">
        <ele>175.42128876215</ele>
        <time>2022-02-01T15:28:58Z</time>
      </trkpt>
      <trkpt lat="43.58492" lon="2.13993">
        <ele>176.53545117485</ele>
        <time>2022-02-01T15:29:05Z</time>
      </trkpt>
      <trkpt lat="43.58485" lon="2.13999">
        <ele>177.99117307018</ele>
        <time>2022-02-01T15:29:13Z</time>
      </trkpt>
      <trkpt lat="43.58479" lon="2.14006">
        <ele>178.05131538927</ele>
        <time>2022-02-01T15:29:22Z</time>
      </trkpt>
      <trkpt lat="43.58473" lon="2.14015">
        <ele>178.91516453715</ele>
        <time>2022-02-01T15:29:29Z</time>
      </trkpt>
      <trkpt lat="43.58463" lon="2.14026">
        <ele>179.97803348402</ele>
        <time>2022-02-01T15:29:33Z</time>
      </trkpt>
      <trkpt lat="43.58457" lon="2.14036">
        <ele>180.92701036574</ele>
        <time>2022-02-01T15:29:38Z</time>
      </trkpt>
      <trkpt lat="43.58451" lon="2.14044">
        <ele>181.91725102967</ele>
        <time>2022-02-01T15:29:47Z</time>
      </trkpt>
      <trkpt lat="43.58444" lon="2.14052">
        <ele>180.51083643657</ele>
        <time>2022-02-01T15:29:59Z</time>
      </trkpt>
      <trkpt lat="43.58437" lon="2.14058">
        <ele>178.7527741418</ele>
        <time>2022-02-01T15:30:15Z</time>
      </trkpt>
      <trkpt lat="43.58431" lon="2.14065">
        <ele>177.00813493255</ele>
        <time>2022-02-01T15:30:20Z</time>
      </trkpt>
      <trkpt lat="43.58425" lon="2.14074">
        <ele>176.01750547849</ele>
        <time>2022-02-01T15:30:26Z</time>
      </trkpt>
      <trkpt lat="43.58419" lon="2.14083">
        <ele>175.35783287913</ele>
        <time>2022-02-01T15:30:32Z</time>
      </trkpt>
      <trkpt lat="43.58415" lon="2.14092">
        <ele>173.62191704104</ele>
        <time>2022-02-01T15:30:46Z</time>
      </trkpt>
      <trkpt lat="43.58408" lon="2.14102">
        <ele>172.97920982788</ele>
        <time>2022-02-01T15:30:50Z</time>
      </trkpt>
      <trkpt lat="43.58403" lon="2.14111">
        <ele>171.57679307752</ele>
        <time>2022-02-01T15:30:55Z</time>
      </trkpt>
      <trkpt lat="43.58398" lon="2.14121">
        <ele>172.96916487512</ele>
        <time>2022-02-01T15:31:02Z</time>
      </trkpt>
      <trkpt lat="43.58393" lon="2.14129">
        <ele>174.07353477999</ele>
        <time>2022-02-01T15:31:09Z</time>
      </trkpt>
      <trkpt lat="43.58386" lon="2.14135">
        <ele>174.14131814693</ele>
        <time>2022-02-01T15:31:15Z</time>
      </trkpt>
      <trkpt lat="43.5838" lon="2.14142">
        <ele>174.07838463573</ele>
        <time>2022-02-01T15:31:21Z</time>
      </trkpt>
      <trkpt lat="43.58376" lon="2.14151">
        <ele>173.49668252156</ele>
        <time>2022-02-01T15:31:28Z</time>
      </trkpt>
      <trkpt lat="43.5837" lon="2.14159">
        <ele>173.68340110731</ele>
        <time>2022-02-01T15:31:33Z</time>
      </trkpt>
      <trkpt lat="43.58364" lon="2.14166">
        <ele>173.80136902252</ele>
        <time>2022-02-01T15:31:39Z</time>
      </trkpt>
      <trkpt lat="43.58359" lon="2.14176">
        <ele>174.42878514457</ele>
        <time>2022-02-01T15:31:46Z</time>
      </trkpt>
      <trkpt lat="43.58352" lon="2.14183">
        <ele>173.78642636193</ele>
        <time>2022-02-01T15:31:53Z</time>
      </trkpt>
      <trkpt lat="43.58347" lon="2.14193">
        <ele>175.10524773598</ele>
        <time>2022-02-01T15:32:01Z</time>
      </trkpt>
      <trkpt lat="43.58342" lon="2.14203">
        <ele>174.34884377301</ele>
        <time>2022-02-01T15:32:11Z</time>
      </trkpt>
      <trkpt lat="43.58336" lon="2.14211">
        <ele>175.04085957159</ele>
        <time>2022-02-01T15:32:18Z</time>
      </trkpt>
      <trkpt lat="43.5833" lon="2.14219">
        <ele>174.20816685924</ele>
        <time>2022-02-01T15:32:26Z</time>
      </trkpt>
      <trkpt lat="43.58324" lon="2.14226">
        <ele>174.74451972209</ele>
        <time>2022-02-01T15:32:32Z</time>
      </trkpt>
      <trkpt lat="43.58318" lon="2.14234">
        <ele>175.81454623994</ele>
        <time>2022-02-01T15:32:39Z</time>
      </trkpt>
      <trkpt lat="43.58313" lon="2.14244">
        <ele>176.74631671405</ele>
        <time>2022-02-01T15:32:46Z</time>
      </trkpt>
      <trkpt lat="43.58308" lon="2.14252">
        <ele>177.64035475272</ele>
        <time>2022-02-01T15:32:53Z</time>
      </trkpt>
      <trkpt lat="43.58302" lon="2.14259">
        <ele>177.53536924064</ele>
        <time>2022-02-01T15:33:01Z</time>
      </trkpt>
      <trkpt lat="43.58297" lon="2.14269">
        <ele>176.71018479525</ele>
        <time>2022-02-01T15:33:12Z</time>
      </trkpt>
      <trkpt lat="43.58293" lon="2.14279">
        <ele>174.66692324006</ele>
        <time>2022-02-01T15:33:21Z</time>
      </trkpt>
      <trkpt lat="43.58289" lon="2.14289">
        <ele>172.85729618131</ele>
        <time>2022-02-01T15:33:30Z</time>
      </trkpt>
      <trkpt lat="43.58285" lon="2.143">
        <ele>170.47077720459</ele>
        <time>2022-02-01T15:33:40Z</time>
      </trkpt>
      <trkpt lat="43.58281" lon="2.1431">
        <ele>169.32021284395</ele>
        <time>2022-02-01T15:33:51Z</time>
      </trkpt>
      <trkpt lat="43.58278" lon="2.14321">
        <ele>166.28152337995</ele>
        <time>2022-02-01T15:34:00Z</time>
      </trkpt>
      <trkpt lat="43.58276" lon="2.14332">
        <ele>166.58305542785</ele>
        <time>2022-02-01T15:34:09Z</time>
      </trkpt>
      <trkpt lat="43.58273" lon="2.14343">
        <ele>167.05398878578</ele>
        <time>2022-02-01T15:34:15Z</time>
      </trkpt>
      <trkpt lat="43.58267" lon="2.14352">
        <ele>165.96832424801</ele>
        <time>2022-02-01T15:34:23Z</time>
      </trkpt>
      <trkpt lat="43.58261" lon="2.14359">
        <ele>164.87328906199</ele>
        <time>2022-02-01T15:34:31Z</time>
      </trkpt>
      <trkpt lat="43.58254" lon="2.14364">
        <ele>164.72381541628</ele>
        <time>2022-02-01T15:34:39Z</time>
      </trkpt>
      <trkpt lat="43.58247" lon="2.14373">
        <ele>167.44577144913</ele>
        <time>2022-02-01T15:34:49Z</time>
      </trkpt>
      <trkpt lat="43.58239" lon="2.14376">
        <ele>167.21794101064</ele>
        <time>2022-02-01T15:34:57Z</time>
      </trkpt>
      <trkpt lat="43.58238" lon="2.14376">
        <ele>166.3161235034</ele>
        <time>2022-02-01T15:35:20Z</time>
      </trkpt>
      <trkpt lat="43.58238" lon="2.14376">
        <ele>166.3161235034</ele>
        <time>2022-02-01T15:35:20Z</time>
      </trkpt>
    </trkseg>
  </trk>
</gpx>